<?xml version="1.0" encoding="UTF-8"?>
<gpx version="1.1" creator="2bulu-scraper" xmlns="http://www.topografix.com/GPX/1/1">
  <metadata><name>龙卦山徒步登顶9公里来回</name><desc>source: 2bulu.com trackId=76091622; exported 2026-09-01T14:46:42.124Z</desc>
    <bounds minlat="28.6687481" minlon="105.6475005" maxlat="28.675905" maxlon="105.6701305"/>
    <link href="https://www.2bulu.com/track/t-8SQeIy%252FtNKbp%252FR2KBg5Tzw%253D%253D.htm"><text>2bulu 源页面</text></link>
  </metadata>
  <wpt lat="28.6757211" lon="105.6701305"><ele>268</ele><name>右转</name></wpt>
  <wpt lat="28.6757211" lon="105.6701305"><ele>268</ele><name>直行</name></wpt>
  <wpt lat="28.6754469" lon="105.6693267"><ele>267</ele><name>直行</name></wpt>
  <wpt lat="28.6751828" lon="105.6690627"><ele>266</ele><name>直行</name></wpt>
  <wpt lat="28.6747533" lon="105.6676761"><ele>270</ele><name>右转</name></wpt>
  <wpt lat="28.6747369" lon="105.6651546"><ele>281</ele><name>直行</name></wpt>
  <wpt lat="28.6757029" lon="105.6618778"><ele>345</ele><name>直行</name></wpt>
  <wpt lat="28.6745861" lon="105.6604807"><ele>374</ele><name>直行</name></wpt>
  <wpt lat="28.6749531" lon="105.6603466"><ele>381</ele><name></name></wpt>
  <wpt lat="28.675082" lon="105.6592526"><ele>403</ele><name>直行</name></wpt>
  <wpt lat="28.6755075" lon="105.6559594"><ele>460</ele><name>直行</name></wpt>
  <wpt lat="28.6737716" lon="105.65517"><ele>464</ele><name>直行</name></wpt>
  <wpt lat="28.6721788" lon="105.6534306"><ele>502</ele><name>直行</name></wpt>
  <wpt lat="28.6720883" lon="105.6533783"><ele>508</ele><name>直行</name></wpt>
  <wpt lat="28.6700167" lon="105.6503114"><ele>541</ele><name></name></wpt>
  <wpt lat="28.6688467" lon="105.6492898"><ele>547</ele><name>右转</name></wpt>
  <wpt lat="28.6690742" lon="105.648128"><ele>569</ele><name>直行</name></wpt>
  <wpt lat="28.6691283" lon="105.6481033"><ele>568</ele><name></name></wpt>
  <wpt lat="28.6692398" lon="105.6475549"><ele>583</ele><name>直行</name></wpt>
  <wpt lat="28.6708962" lon="105.6475857"><ele>624</ele><name>右转</name></wpt>
  <wpt lat="28.67104" lon="105.6479817"><ele>647</ele><name>直行</name></wpt>
  <wpt lat="28.6706156" lon="105.6490539"><ele>673</ele><name></name></wpt>
  <wpt lat="28.6710583" lon="105.64909"><ele>706</ele><name></name></wpt>
  <wpt lat="28.6712073" lon="105.6492271"><ele>714</ele><name></name></wpt>
  <trk><name>龙卦山徒步登顶9公里来回</name>
      <trkseg>
        <trkpt lat="28.6756933" lon="105.66992"><ele>270</ele><time>2025-12-12T20:08:32.000Z</time></trkpt>
        <trkpt lat="28.6757086" lon="105.6700238"><ele>270</ele><time>2025-12-12T20:08:46.000Z</time></trkpt>
        <trkpt lat="28.6757211" lon="105.6701305"><ele>269.74</ele><time>2025-12-12T20:08:56.000Z</time></trkpt>
        <trkpt lat="28.6756994" lon="105.6700753"><ele>269.04</ele><time>2025-12-12T20:09:28.000Z</time></trkpt>
        <trkpt lat="28.6756718" lon="105.669971"><ele>269.45</ele><time>2025-12-12T20:09:32.000Z</time></trkpt>
        <trkpt lat="28.6756507" lon="105.6698449"><ele>269.47</ele><time>2025-12-12T20:09:38.000Z</time></trkpt>
        <trkpt lat="28.6756414" lon="105.6697015"><ele>269.01</ele><time>2025-12-12T20:09:46.000Z</time></trkpt>
        <trkpt lat="28.6756241" lon="105.6695819"><ele>269.48</ele><time>2025-12-12T20:09:52.000Z</time></trkpt>
        <trkpt lat="28.675597" lon="105.669477"><ele>269.57</ele><time>2025-12-12T20:10:00.000Z</time></trkpt>
        <trkpt lat="28.6755539" lon="105.6693769"><ele>269.37</ele><time>2025-12-12T20:10:08.000Z</time></trkpt>
        <trkpt lat="28.6755569" lon="105.6692704"><ele>268.31</ele><time>2025-12-12T20:10:16.000Z</time></trkpt>
        <trkpt lat="28.6756318" lon="105.6692137"><ele>267.66</ele><time>2025-12-12T20:10:24.000Z</time></trkpt>
        <trkpt lat="28.675696" lon="105.6692041"><ele>267.07</ele><time>2025-12-12T20:10:38.000Z</time></trkpt>
        <trkpt lat="28.6756312" lon="105.6692178"><ele>268.38</ele><time>2025-12-12T20:10:46.000Z</time></trkpt>
        <trkpt lat="28.6755259" lon="105.669251"><ele>269.25</ele><time>2025-12-12T20:10:54.000Z</time></trkpt>
        <trkpt lat="28.6754469" lon="105.6693267"><ele>268.93</ele><time>2025-12-12T20:11:02.000Z</time></trkpt>
        <trkpt lat="28.6753566" lon="105.6693362"><ele>268.01</ele><time>2025-12-12T20:11:16.000Z</time></trkpt>
        <trkpt lat="28.6752799" lon="105.6692826"><ele>268.22</ele><time>2025-12-12T20:11:24.000Z</time></trkpt>
        <trkpt lat="28.6752233" lon="105.6691875"><ele>268.17</ele><time>2025-12-12T20:11:34.000Z</time></trkpt>
        <trkpt lat="28.6751828" lon="105.6690627"><ele>268.23</ele><time>2025-12-12T20:11:44.000Z</time></trkpt>
        <trkpt lat="28.6751633" lon="105.6689455"><ele>267.05</ele><time>2025-12-12T20:11:54.000Z</time></trkpt>
        <trkpt lat="28.6751576" lon="105.6688237"><ele>266.6</ele><time>2025-12-12T20:12:04.000Z</time></trkpt>
        <trkpt lat="28.6751712" lon="105.6687058"><ele>266.43</ele><time>2025-12-12T20:12:16.000Z</time></trkpt>
        <trkpt lat="28.6751739" lon="105.6685729"><ele>265.04</ele><time>2025-12-12T20:12:24.000Z</time></trkpt>
        <trkpt lat="28.675178" lon="105.66846"><ele>264.03</ele><time>2025-12-12T20:12:32.000Z</time></trkpt>
        <trkpt lat="28.6751484" lon="105.6683643"><ele>263.89</ele><time>2025-12-12T20:12:40.000Z</time></trkpt>
        <trkpt lat="28.67512" lon="105.6682566"><ele>264.54</ele><time>2025-12-12T20:12:50.000Z</time></trkpt>
        <trkpt lat="28.6750648" lon="105.6681685"><ele>264.48</ele><time>2025-12-12T20:12:58.000Z</time></trkpt>
        <trkpt lat="28.6750183" lon="105.6680775"><ele>264.7</ele><time>2025-12-12T20:13:06.000Z</time></trkpt>
        <trkpt lat="28.6749705" lon="105.6679844"><ele>264.7</ele><time>2025-12-12T20:13:16.000Z</time></trkpt>
        <trkpt lat="28.6749215" lon="105.6678913"><ele>265.22</ele><time>2025-12-12T20:13:42.000Z</time></trkpt>
        <trkpt lat="28.6748712" lon="105.6677994"><ele>266.46</ele><time>2025-12-12T20:13:50.000Z</time></trkpt>
        <trkpt lat="28.6748107" lon="105.6677041"><ele>267.29</ele><time>2025-12-12T20:14:00.000Z</time></trkpt>
        <trkpt lat="28.6747567" lon="105.6676151"><ele>268.16</ele><time>2025-12-12T20:14:08.000Z</time></trkpt>
        <trkpt lat="28.6747533" lon="105.6676761"><ele>268.91</ele><time>2025-12-12T20:14:26.000Z</time></trkpt>
        <trkpt lat="28.6747571" lon="105.6676177"><ele>269.55</ele><time>2025-12-12T20:14:44.000Z</time></trkpt>
        <trkpt lat="28.674782" lon="105.6675048"><ele>269.4</ele><time>2025-12-12T20:14:54.000Z</time></trkpt>
        <trkpt lat="28.6748153" lon="105.6673953"><ele>267.85</ele><time>2025-12-12T20:15:04.000Z</time></trkpt>
        <trkpt lat="28.6748508" lon="105.6672737"><ele>266.8</ele><time>2025-12-12T20:15:14.000Z</time></trkpt>
        <trkpt lat="28.6748767" lon="105.6671647"><ele>266.37</ele><time>2025-12-12T20:15:20.000Z</time></trkpt>
        <trkpt lat="28.6748969" lon="105.6670457"><ele>265.44</ele><time>2025-12-12T20:15:28.000Z</time></trkpt>
        <trkpt lat="28.6749113" lon="105.6669345"><ele>264.47</ele><time>2025-12-12T20:15:36.000Z</time></trkpt>
        <trkpt lat="28.6749489" lon="105.6668332"><ele>263.32</ele><time>2025-12-12T20:15:44.000Z</time></trkpt>
        <trkpt lat="28.6749729" lon="105.6667291"><ele>263.1</ele><time>2025-12-12T20:15:52.000Z</time></trkpt>
        <trkpt lat="28.6749822" lon="105.6666171"><ele>263.87</ele><time>2025-12-12T20:16:00.000Z</time></trkpt>
        <trkpt lat="28.6749725" lon="105.6665084"><ele>265.18</ele><time>2025-12-12T20:16:08.000Z</time></trkpt>
        <trkpt lat="28.6749531" lon="105.6664663"><ele>267.51</ele><time>2025-12-12T20:16:14.000Z</time></trkpt>
        <trkpt lat="28.6748903" lon="105.6664085"><ele>269.4</ele><time>2025-12-12T20:16:24.000Z</time></trkpt>
        <trkpt lat="28.674813" lon="105.6663338"><ele>269.1</ele><time>2025-12-12T20:16:32.000Z</time></trkpt>
        <trkpt lat="28.6747398" lon="105.6662581"><ele>268.2</ele><time>2025-12-12T20:16:40.000Z</time></trkpt>
        <trkpt lat="28.674688" lon="105.6661574"><ele>268.37</ele><time>2025-12-12T20:16:52.000Z</time></trkpt>
        <trkpt lat="28.6746914" lon="105.6660402"><ele>269.54</ele><time>2025-12-12T20:17:06.000Z</time></trkpt>
        <trkpt lat="28.6747107" lon="105.6659236"><ele>271.72</ele><time>2025-12-12T20:17:18.000Z</time></trkpt>
        <trkpt lat="28.6746948" lon="105.6658151"><ele>273.69</ele><time>2025-12-12T20:17:32.000Z</time></trkpt>
        <trkpt lat="28.674671" lon="105.6657104"><ele>274.81</ele><time>2025-12-12T20:17:42.000Z</time></trkpt>
        <trkpt lat="28.6746222" lon="105.6656135"><ele>275.71</ele><time>2025-12-12T20:17:52.000Z</time></trkpt>
        <trkpt lat="28.6745788" lon="105.6655166"><ele>276.74</ele><time>2025-12-12T20:18:06.000Z</time></trkpt>
        <trkpt lat="28.6746068" lon="105.6654293"><ele>277.71</ele><time>2025-12-12T20:18:18.000Z</time></trkpt>
        <trkpt lat="28.6746676" lon="105.6653526"><ele>278.31</ele><time>2025-12-12T20:18:28.000Z</time></trkpt>
        <trkpt lat="28.6747132" lon="105.6652617"><ele>279.08</ele><time>2025-12-12T20:18:40.000Z</time></trkpt>
        <trkpt lat="28.6747369" lon="105.6651546"><ele>278.87</ele><time>2025-12-12T20:18:52.000Z</time></trkpt>
        <trkpt lat="28.6747403" lon="105.6650469"><ele>279.79</ele><time>2025-12-12T20:19:08.000Z</time></trkpt>
        <trkpt lat="28.6747444" lon="105.6649324"><ele>281.99</ele><time>2025-12-12T20:19:28.000Z</time></trkpt>
        <trkpt lat="28.6747451" lon="105.6648149"><ele>283.11</ele><time>2025-12-12T20:19:48.000Z</time></trkpt>
        <trkpt lat="28.6747616" lon="105.6647094"><ele>284.57</ele><time>2025-12-12T20:20:10.000Z</time></trkpt>
        <trkpt lat="28.6747757" lon="105.6645975"><ele>286.22</ele><time>2025-12-12T20:20:26.000Z</time></trkpt>
        <trkpt lat="28.6747845" lon="105.664488"><ele>288.83</ele><time>2025-12-12T20:20:42.000Z</time></trkpt>
        <trkpt lat="28.6747763" lon="105.6643795"><ele>291.66</ele><time>2025-12-12T20:21:00.000Z</time></trkpt>
        <trkpt lat="28.674762" lon="105.6642751"><ele>293.57</ele><time>2025-12-12T20:21:14.000Z</time></trkpt>
        <trkpt lat="28.6747666" lon="105.664172"><ele>295.6</ele><time>2025-12-12T20:21:30.000Z</time></trkpt>
        <trkpt lat="28.6747577" lon="105.6640667"><ele>297.58</ele><time>2025-12-12T20:21:48.000Z</time></trkpt>
        <trkpt lat="28.6747708" lon="105.6639604"><ele>299.22</ele><time>2025-12-12T20:22:04.000Z</time></trkpt>
        <trkpt lat="28.6748037" lon="105.6638574"><ele>301.92</ele><time>2025-12-12T20:22:24.000Z</time></trkpt>
        <trkpt lat="28.6748528" lon="105.6637658"><ele>303.72</ele><time>2025-12-12T20:22:38.000Z</time></trkpt>
        <trkpt lat="28.6749188" lon="105.6636806"><ele>305.09</ele><time>2025-12-12T20:22:54.000Z</time></trkpt>
        <trkpt lat="28.6749843" lon="105.6635996"><ele>307.24</ele><time>2025-12-12T20:23:12.000Z</time></trkpt>
        <trkpt lat="28.6750389" lon="105.6635119"><ele>309.29</ele><time>2025-12-12T20:23:32.000Z</time></trkpt>
        <trkpt lat="28.6750723" lon="105.6634136"><ele>311.32</ele><time>2025-12-12T20:23:50.000Z</time></trkpt>
        <trkpt lat="28.6750981" lon="105.6633128"><ele>313.33</ele><time>2025-12-12T20:24:04.000Z</time></trkpt>
        <trkpt lat="28.6751273" lon="105.6632141"><ele>314.87</ele><time>2025-12-12T20:24:20.000Z</time></trkpt>
        <trkpt lat="28.6751725" lon="105.6631167"><ele>316.69</ele><time>2025-12-12T20:24:34.000Z</time></trkpt>
        <trkpt lat="28.6752278" lon="105.6630211"><ele>319.1</ele><time>2025-12-12T20:24:48.000Z</time></trkpt>
        <trkpt lat="28.6752911" lon="105.6629349"><ele>321.25</ele><time>2025-12-12T20:25:26.000Z</time></trkpt>
        <trkpt lat="28.6753814" lon="105.6628896"><ele>323.47</ele><time>2025-12-12T20:25:36.000Z</time></trkpt>
        <trkpt lat="28.6754845" lon="105.6628888"><ele>325.24</ele><time>2025-12-12T20:25:50.000Z</time></trkpt>
        <trkpt lat="28.6755814" lon="105.6628841"><ele>326.82</ele><time>2025-12-12T20:26:04.000Z</time></trkpt>
        <trkpt lat="28.6756757" lon="105.6628618"><ele>327.67</ele><time>2025-12-12T20:26:20.000Z</time></trkpt>
        <trkpt lat="28.675727" lon="105.6627785"><ele>328.76</ele><time>2025-12-12T20:26:38.000Z</time></trkpt>
        <trkpt lat="28.6757863" lon="105.6626768"><ele>330.24</ele><time>2025-12-12T20:27:20.000Z</time></trkpt>
        <trkpt lat="28.6758395" lon="105.6625805"><ele>331</ele><time>2025-12-12T20:27:34.000Z</time></trkpt>
        <trkpt lat="28.6758661" lon="105.6624764"><ele>331.26</ele><time>2025-12-12T20:27:48.000Z</time></trkpt>
        <trkpt lat="28.6758739" lon="105.6623681"><ele>331.75</ele><time>2025-12-12T20:28:08.000Z</time></trkpt>
        <trkpt lat="28.675879" lon="105.6622619"><ele>332.5</ele><time>2025-12-12T20:28:22.000Z</time></trkpt>
        <trkpt lat="28.6758576" lon="105.6621496"><ele>334.26</ele><time>2025-12-12T20:28:36.000Z</time></trkpt>
        <trkpt lat="28.6758178" lon="105.6620468"><ele>337.29</ele><time>2025-12-12T20:28:56.000Z</time></trkpt>
        <trkpt lat="28.6757558" lon="105.6619654"><ele>339.88</ele><time>2025-12-12T20:29:10.000Z</time></trkpt>
        <trkpt lat="28.6757029" lon="105.6618778"><ele>341.61</ele><time>2025-12-12T20:29:22.000Z</time></trkpt>
        <trkpt lat="28.675643" lon="105.661798"><ele>343.24</ele><time>2025-12-12T20:29:34.000Z</time></trkpt>
        <trkpt lat="28.6755801" lon="105.6617181"><ele>343.35</ele><time>2025-12-12T20:29:54.000Z</time></trkpt>
        <trkpt lat="28.6755044" lon="105.661655"><ele>344.58</ele><time>2025-12-12T20:30:08.000Z</time></trkpt>
        <trkpt lat="28.6754196" lon="105.6616092"><ele>346.48</ele><time>2025-12-12T20:30:20.000Z</time></trkpt>
        <trkpt lat="28.6754577" lon="105.6616473"><ele>346.88</ele><time>2025-12-12T20:30:34.000Z</time></trkpt>
        <trkpt lat="28.675484" lon="105.6615907"><ele>346.11</ele><time>2025-12-12T20:30:56.000Z</time></trkpt>
        <trkpt lat="28.6754286" lon="105.6615203"><ele>347.1</ele><time>2025-12-12T20:31:08.000Z</time></trkpt>
        <trkpt lat="28.6753381" lon="105.6614698"><ele>348.99</ele><time>2025-12-12T20:31:22.000Z</time></trkpt>
        <trkpt lat="28.6752655" lon="105.6613959"><ele>351.83</ele><time>2025-12-12T20:31:38.000Z</time></trkpt>
        <trkpt lat="28.6752029" lon="105.6613148"><ele>355.39</ele><time>2025-12-12T20:32:00.000Z</time></trkpt>
        <trkpt lat="28.6751399" lon="105.6612247"><ele>358.19</ele><time>2025-12-12T20:32:16.000Z</time></trkpt>
        <trkpt lat="28.6750917" lon="105.6611287"><ele>359.36</ele><time>2025-12-12T20:32:26.000Z</time></trkpt>
        <trkpt lat="28.6750276" lon="105.6610403"><ele>360.06</ele><time>2025-12-12T20:32:42.000Z</time></trkpt>
        <trkpt lat="28.6749757" lon="105.6609443"><ele>360.34</ele><time>2025-12-12T20:32:54.000Z</time></trkpt>
        <trkpt lat="28.6749287" lon="105.6608457"><ele>361.27</ele><time>2025-12-12T20:33:10.000Z</time></trkpt>
        <trkpt lat="28.6749005" lon="105.6607452"><ele>362.36</ele><time>2025-12-12T20:33:32.000Z</time></trkpt>
        <trkpt lat="28.6748399" lon="105.6606532"><ele>361.95</ele><time>2025-12-12T20:33:50.000Z</time></trkpt>
        <trkpt lat="28.6747599" lon="105.6605821"><ele>363.22</ele><time>2025-12-12T20:34:06.000Z</time></trkpt>
        <trkpt lat="28.6746739" lon="105.6605209"><ele>365.19</ele><time>2025-12-12T20:34:22.000Z</time></trkpt>
        <trkpt lat="28.6745861" lon="105.6604807"><ele>366.78</ele><time>2025-12-12T20:34:44.000Z</time></trkpt>
        <trkpt lat="28.6745026" lon="105.6604245"><ele>369.67</ele><time>2025-12-12T20:35:14.000Z</time></trkpt>
        <trkpt lat="28.6744452" lon="105.6603443"><ele>370.76</ele><time>2025-12-12T20:35:32.000Z</time></trkpt>
        <trkpt lat="28.6744325" lon="105.6602365"><ele>371.98</ele><time>2025-12-12T20:35:54.000Z</time></trkpt>
        <trkpt lat="28.6744862" lon="105.6601412"><ele>373.28</ele><time>2025-12-12T20:36:44.000Z</time></trkpt>
        <trkpt lat="28.674581" lon="105.6601115"><ele>374.24</ele><time>2025-12-12T20:36:56.000Z</time></trkpt>
        <trkpt lat="28.6746893" lon="105.6601413"><ele>376.2</ele><time>2025-12-12T20:37:08.000Z</time></trkpt>
        <trkpt lat="28.6747886" lon="105.6602045"><ele>378.01</ele><time>2025-12-12T20:37:22.000Z</time></trkpt>
        <trkpt lat="28.6748688" lon="105.6602836"><ele>379.94</ele><time>2025-12-12T20:37:34.000Z</time></trkpt>
        <trkpt lat="28.6749531" lon="105.6603466"><ele>381.04</ele><time>2025-12-12T20:37:44.000Z</time></trkpt>
        <trkpt lat="28.675043" lon="105.6603665"><ele>380.85</ele><time>2025-12-12T20:38:22.000Z</time></trkpt>
        <trkpt lat="28.6751162" lon="105.6603136"><ele>384.36</ele><time>2025-12-12T20:38:36.000Z</time></trkpt>
        <trkpt lat="28.6751628" lon="105.6602033"><ele>385.97</ele><time>2025-12-12T20:39:02.000Z</time></trkpt>
        <trkpt lat="28.6751617" lon="105.6600847"><ele>388.05</ele><time>2025-12-12T20:39:10.000Z</time></trkpt>
        <trkpt lat="28.6751626" lon="105.6600376"><ele>389.53</ele><time>2025-12-12T20:39:16.000Z</time></trkpt>
        <trkpt lat="28.6751389" lon="105.6599489"><ele>390.38</ele><time>2025-12-12T20:39:38.000Z</time></trkpt>
        <trkpt lat="28.6751419" lon="105.6598454"><ele>392.32</ele><time>2025-12-12T20:39:56.000Z</time></trkpt>
        <trkpt lat="28.6751256" lon="105.6597364"><ele>394.64</ele><time>2025-12-12T20:40:16.000Z</time></trkpt>
        <trkpt lat="28.6750883" lon="105.6596257"><ele>397.42</ele><time>2025-12-12T20:40:38.000Z</time></trkpt>
        <trkpt lat="28.6750692" lon="105.6595103"><ele>399.6</ele><time>2025-12-12T20:40:58.000Z</time></trkpt>
        <trkpt lat="28.675061" lon="105.6594002"><ele>400.68</ele><time>2025-12-12T20:41:08.000Z</time></trkpt>
        <trkpt lat="28.6751155" lon="105.6593277"><ele>401.81</ele><time>2025-12-12T20:41:20.000Z</time></trkpt>
        <trkpt lat="28.675082" lon="105.6592526"><ele>402.45</ele><time>2025-12-12T20:42:06.000Z</time></trkpt>
        <trkpt lat="28.6750539" lon="105.6591558"><ele>402.86</ele><time>2025-12-12T20:42:56.000Z</time></trkpt>
        <trkpt lat="28.6750356" lon="105.6590539"><ele>403.78</ele><time>2025-12-12T20:43:10.000Z</time></trkpt>
        <trkpt lat="28.6750308" lon="105.6589408"><ele>405.25</ele><time>2025-12-12T20:43:24.000Z</time></trkpt>
        <trkpt lat="28.6750499" lon="105.6588342"><ele>407.12</ele><time>2025-12-12T20:43:38.000Z</time></trkpt>
        <trkpt lat="28.6751008" lon="105.6587448"><ele>409.48</ele><time>2025-12-12T20:43:54.000Z</time></trkpt>
        <trkpt lat="28.6751416" lon="105.6586455"><ele>412.37</ele><time>2025-12-12T20:44:06.000Z</time></trkpt>
        <trkpt lat="28.6751836" lon="105.6585493"><ele>414.58</ele><time>2025-12-12T20:44:18.000Z</time></trkpt>
        <trkpt lat="28.6752289" lon="105.6584555"><ele>416.39</ele><time>2025-12-12T20:44:30.000Z</time></trkpt>
        <trkpt lat="28.6752825" lon="105.6583612"><ele>416.83</ele><time>2025-12-12T20:44:42.000Z</time></trkpt>
        <trkpt lat="28.6753449" lon="105.658264"><ele>417.12</ele><time>2025-12-12T20:44:54.000Z</time></trkpt>
        <trkpt lat="28.6754185" lon="105.6581808"><ele>417.15</ele><time>2025-12-12T20:45:04.000Z</time></trkpt>
        <trkpt lat="28.6754892" lon="105.6581002"><ele>417.47</ele><time>2025-12-12T20:45:14.000Z</time></trkpt>
        <trkpt lat="28.6755139" lon="105.6579961"><ele>417.7</ele><time>2025-12-12T20:45:26.000Z</time></trkpt>
        <trkpt lat="28.6754588" lon="105.6579243"><ele>417.79</ele><time>2025-12-12T20:45:50.000Z</time></trkpt>
        <trkpt lat="28.6753693" lon="105.6578664"><ele>417.66</ele><time>2025-12-12T20:46:10.000Z</time></trkpt>
        <trkpt lat="28.6753004" lon="105.6577874"><ele>418.71</ele><time>2025-12-12T20:46:28.000Z</time></trkpt>
        <trkpt lat="28.6752777" lon="105.6576768"><ele>420.69</ele><time>2025-12-12T20:46:54.000Z</time></trkpt>
        <trkpt lat="28.6752983" lon="105.657565"><ele>423.66</ele><time>2025-12-12T20:47:12.000Z</time></trkpt>
        <trkpt lat="28.6753331" lon="105.6574584"><ele>425.96</ele><time>2025-12-12T20:47:32.000Z</time></trkpt>
        <trkpt lat="28.6753796" lon="105.6573574"><ele>428.86</ele><time>2025-12-12T20:47:50.000Z</time></trkpt>
        <trkpt lat="28.6754355" lon="105.6572588"><ele>431.03</ele><time>2025-12-12T20:48:06.000Z</time></trkpt>
        <trkpt lat="28.6754928" lon="105.6571583"><ele>432.99</ele><time>2025-12-12T20:48:20.000Z</time></trkpt>
        <trkpt lat="28.6755428" lon="105.6570607"><ele>434.46</ele><time>2025-12-12T20:48:38.000Z</time></trkpt>
        <trkpt lat="28.6755855" lon="105.6569629"><ele>435.81</ele><time>2025-12-12T20:49:00.000Z</time></trkpt>
        <trkpt lat="28.6756329" lon="105.6568736"><ele>438.21</ele><time>2025-12-12T20:49:16.000Z</time></trkpt>
        <trkpt lat="28.6756837" lon="105.6567849"><ele>440.7</ele><time>2025-12-12T20:49:34.000Z</time></trkpt>
        <trkpt lat="28.6757093" lon="105.6566833"><ele>442.25</ele><time>2025-12-12T20:50:04.000Z</time></trkpt>
        <trkpt lat="28.6757105" lon="105.656578"><ele>443.73</ele><time>2025-12-12T20:50:30.000Z</time></trkpt>
        <trkpt lat="28.6756864" lon="105.6564744"><ele>445.14</ele><time>2025-12-12T20:50:50.000Z</time></trkpt>
        <trkpt lat="28.675649" lon="105.6563706"><ele>447.01</ele><time>2025-12-12T20:51:10.000Z</time></trkpt>
        <trkpt lat="28.6756002" lon="105.6562745"><ele>449.16</ele><time>2025-12-12T20:51:28.000Z</time></trkpt>
        <trkpt lat="28.6755645" lon="105.6561712"><ele>451.46</ele><time>2025-12-12T20:51:44.000Z</time></trkpt>
        <trkpt lat="28.6755464" lon="105.6560624"><ele>453.41</ele><time>2025-12-12T20:51:58.000Z</time></trkpt>
        <trkpt lat="28.6755075" lon="105.6559594"><ele>454.57</ele><time>2025-12-12T20:52:14.000Z</time></trkpt>
        <trkpt lat="28.6754249" lon="105.6559578"><ele>456.9</ele><time>2025-12-12T20:52:26.000Z</time></trkpt>
        <trkpt lat="28.6753297" lon="105.6559593"><ele>459.1</ele><time>2025-12-12T20:52:38.000Z</time></trkpt>
        <trkpt lat="28.6752263" lon="105.6559376"><ele>460.6</ele><time>2025-12-12T20:52:52.000Z</time></trkpt>
        <trkpt lat="28.6751308" lon="105.6558892"><ele>461.76</ele><time>2025-12-12T20:53:10.000Z</time></trkpt>
        <trkpt lat="28.6750661" lon="105.6557994"><ele>462.55</ele><time>2025-12-12T20:53:32.000Z</time></trkpt>
        <trkpt lat="28.6749968" lon="105.6557157"><ele>462.53</ele><time>2025-12-12T20:53:46.000Z</time></trkpt>
        <trkpt lat="28.6749231" lon="105.6556472"><ele>462.35</ele><time>2025-12-12T20:53:58.000Z</time></trkpt>
        <trkpt lat="28.6748385" lon="105.6555868"><ele>462.54</ele><time>2025-12-12T20:54:10.000Z</time></trkpt>
        <trkpt lat="28.6747599" lon="105.6555303"><ele>463.43</ele><time>2025-12-12T20:54:22.000Z</time></trkpt>
        <trkpt lat="28.6746878" lon="105.6554585"><ele>463.8</ele><time>2025-12-12T20:54:54.000Z</time></trkpt>
        <trkpt lat="28.6746118" lon="105.6553931"><ele>463.5</ele><time>2025-12-12T20:55:26.000Z</time></trkpt>
        <trkpt lat="28.6745315" lon="105.6553418"><ele>463.76</ele><time>2025-12-12T20:55:46.000Z</time></trkpt>
        <trkpt lat="28.6744459" lon="105.6552982"><ele>464.25</ele><time>2025-12-12T20:56:06.000Z</time></trkpt>
        <trkpt lat="28.6743536" lon="105.6552579"><ele>463.93</ele><time>2025-12-12T20:56:40.000Z</time></trkpt>
        <trkpt lat="28.6742555" lon="105.6552279"><ele>463.36</ele><time>2025-12-12T20:56:52.000Z</time></trkpt>
        <trkpt lat="28.6741571" lon="105.6552249"><ele>463.29</ele><time>2025-12-12T20:57:04.000Z</time></trkpt>
        <trkpt lat="28.6740593" lon="105.6552057"><ele>463.21</ele><time>2025-12-12T20:57:16.000Z</time></trkpt>
        <trkpt lat="28.6739657" lon="105.6552038"><ele>463.12</ele><time>2025-12-12T20:57:30.000Z</time></trkpt>
        <trkpt lat="28.6738677" lon="105.6551955"><ele>462.9</ele><time>2025-12-12T20:57:44.000Z</time></trkpt>
        <trkpt lat="28.6737716" lon="105.65517"><ele>462.9</ele><time>2025-12-12T20:57:56.000Z</time></trkpt>
        <trkpt lat="28.6736888" lon="105.6551169"><ele>463.33</ele><time>2025-12-12T20:58:12.000Z</time></trkpt>
        <trkpt lat="28.6735985" lon="105.6550744"><ele>463.36</ele><time>2025-12-12T20:58:28.000Z</time></trkpt>
        <trkpt lat="28.6735184" lon="105.6550166"><ele>464.67</ele><time>2025-12-12T20:58:42.000Z</time></trkpt>
        <trkpt lat="28.673432" lon="105.6549986"><ele>466.66</ele><time>2025-12-12T20:58:56.000Z</time></trkpt>
        <trkpt lat="28.6733378" lon="105.6550051"><ele>467.62</ele><time>2025-12-12T20:59:10.000Z</time></trkpt>
        <trkpt lat="28.673242" lon="105.6550201"><ele>468.99</ele><time>2025-12-12T20:59:26.000Z</time></trkpt>
        <trkpt lat="28.6731486" lon="105.6550248"><ele>469.51</ele><time>2025-12-12T20:59:40.000Z</time></trkpt>
        <trkpt lat="28.6730564" lon="105.6550542"><ele>470.37</ele><time>2025-12-12T20:59:50.000Z</time></trkpt>
        <trkpt lat="28.6729609" lon="105.6550647"><ele>472.32</ele><time>2025-12-12T21:00:12.000Z</time></trkpt>
        <trkpt lat="28.6728567" lon="105.6550481"><ele>473</ele><time>2025-12-12T21:00:44.000Z</time></trkpt>
        <trkpt lat="28.6727658" lon="105.6549891"><ele>473.26</ele><time>2025-12-12T21:01:06.000Z</time></trkpt>
        <trkpt lat="28.6726877" lon="105.6549239"><ele>472.8</ele><time>2025-12-12T21:01:20.000Z</time></trkpt>
        <trkpt lat="28.6726127" lon="105.6548621"><ele>472.63</ele><time>2025-12-12T21:01:30.000Z</time></trkpt>
        <trkpt lat="28.6725453" lon="105.6547834"><ele>473.09</ele><time>2025-12-12T21:01:44.000Z</time></trkpt>
        <trkpt lat="28.6725052" lon="105.6546807"><ele>472.84</ele><time>2025-12-12T21:01:58.000Z</time></trkpt>
        <trkpt lat="28.6724867" lon="105.6545569"><ele>473.77</ele><time>2025-12-12T21:02:26.000Z</time></trkpt>
        <trkpt lat="28.6724743" lon="105.654445"><ele>477.09</ele><time>2025-12-12T21:02:44.000Z</time></trkpt>
        <trkpt lat="28.6724731" lon="105.6543346"><ele>479.63</ele><time>2025-12-12T21:03:02.000Z</time></trkpt>
        <trkpt lat="28.6724959" lon="105.654224"><ele>481.81</ele><time>2025-12-12T21:03:24.000Z</time></trkpt>
        <trkpt lat="28.6725059" lon="105.6541124"><ele>484.22</ele><time>2025-12-12T21:03:44.000Z</time></trkpt>
        <trkpt lat="28.6725093" lon="105.6540017"><ele>487.39</ele><time>2025-12-12T21:04:22.000Z</time></trkpt>
        <trkpt lat="28.6725098" lon="105.6538966"><ele>487.91</ele><time>2025-12-12T21:04:44.000Z</time></trkpt>
        <trkpt lat="28.672542" lon="105.6537921"><ele>489.2</ele><time>2025-12-12T21:05:04.000Z</time></trkpt>
        <trkpt lat="28.6725484" lon="105.6536865"><ele>490.83</ele><time>2025-12-12T21:05:30.000Z</time></trkpt>
        <trkpt lat="28.67253" lon="105.6535814"><ele>492.88</ele><time>2025-12-12T21:05:56.000Z</time></trkpt>
        <trkpt lat="28.6724668" lon="105.6535103"><ele>494.01</ele><time>2025-12-12T21:06:20.000Z</time></trkpt>
        <trkpt lat="28.6723751" lon="105.6534766"><ele>496.16</ele><time>2025-12-12T21:06:42.000Z</time></trkpt>
        <trkpt lat="28.6722776" lon="105.6534521"><ele>497.16</ele><time>2025-12-12T21:07:04.000Z</time></trkpt>
        <trkpt lat="28.6721788" lon="105.6534306"><ele>498.56</ele><time>2025-12-12T21:07:18.000Z</time></trkpt>
        <trkpt lat="28.6720883" lon="105.6533783"><ele>499.99</ele><time>2025-12-12T21:08:42.000Z</time></trkpt>
        <trkpt lat="28.6720317" lon="105.6532867"><ele>503.57</ele><time>2025-12-12T21:09:38.000Z</time></trkpt>
        <trkpt lat="28.6719806" lon="105.6531894"><ele>502.51</ele><time>2025-12-12T21:09:52.000Z</time></trkpt>
        <trkpt lat="28.6719422" lon="105.6530833"><ele>502.03</ele><time>2025-12-12T21:10:04.000Z</time></trkpt>
        <trkpt lat="28.6719064" lon="105.6529758"><ele>501.76</ele><time>2025-12-12T21:10:16.000Z</time></trkpt>
        <trkpt lat="28.6718637" lon="105.6528743"><ele>502.03</ele><time>2025-12-12T21:10:30.000Z</time></trkpt>
        <trkpt lat="28.6718154" lon="105.6527742"><ele>501.98</ele><time>2025-12-12T21:10:44.000Z</time></trkpt>
        <trkpt lat="28.6717526" lon="105.6526895"><ele>502.16</ele><time>2025-12-12T21:10:58.000Z</time></trkpt>
        <trkpt lat="28.671661" lon="105.6526453"><ele>501.79</ele><time>2025-12-12T21:11:10.000Z</time></trkpt>
        <trkpt lat="28.6715686" lon="105.6526176"><ele>500.76</ele><time>2025-12-12T21:11:22.000Z</time></trkpt>
        <trkpt lat="28.6714944" lon="105.6525505"><ele>499.92</ele><time>2025-12-12T21:11:42.000Z</time></trkpt>
        <trkpt lat="28.6714379" lon="105.6524543"><ele>500.13</ele><time>2025-12-12T21:12:00.000Z</time></trkpt>
        <trkpt lat="28.6713951" lon="105.6523445"><ele>500.93</ele><time>2025-12-12T21:12:24.000Z</time></trkpt>
        <trkpt lat="28.6713372" lon="105.6522519"><ele>502.47</ele><time>2025-12-12T21:12:42.000Z</time></trkpt>
        <trkpt lat="28.6712926" lon="105.6521574"><ele>505.02</ele><time>2025-12-12T21:12:58.000Z</time></trkpt>
        <trkpt lat="28.6712529" lon="105.652061"><ele>508.32</ele><time>2025-12-12T21:13:16.000Z</time></trkpt>
        <trkpt lat="28.6712143" lon="105.6519603"><ele>511.93</ele><time>2025-12-12T21:13:34.000Z</time></trkpt>
        <trkpt lat="28.6711893" lon="105.6518569"><ele>515.57</ele><time>2025-12-12T21:13:54.000Z</time></trkpt>
        <trkpt lat="28.6711237" lon="105.651798"><ele>518.51</ele><time>2025-12-12T21:14:46.000Z</time></trkpt>
        <trkpt lat="28.6710399" lon="105.6517105"><ele>520.48</ele><time>2025-12-12T21:15:36.000Z</time></trkpt>
        <trkpt lat="28.6709774" lon="105.6516216"><ele>522.43</ele><time>2025-12-12T21:16:22.000Z</time></trkpt>
        <trkpt lat="28.6709108" lon="105.6515401"><ele>523.66</ele><time>2025-12-12T21:16:54.000Z</time></trkpt>
        <trkpt lat="28.6708589" lon="105.6514477"><ele>525.06</ele><time>2025-12-12T21:17:12.000Z</time></trkpt>
        <trkpt lat="28.67081" lon="105.6513487"><ele>526.84</ele><time>2025-12-12T21:17:28.000Z</time></trkpt>
        <trkpt lat="28.670764" lon="105.6512476"><ele>528.71</ele><time>2025-12-12T21:17:42.000Z</time></trkpt>
        <trkpt lat="28.6707146" lon="105.6511464"><ele>530.08</ele><time>2025-12-12T21:17:54.000Z</time></trkpt>
        <trkpt lat="28.6706599" lon="105.6510156"><ele>531.17</ele><time>2025-12-12T21:18:00.000Z</time></trkpt>
        <trkpt lat="28.6706195" lon="105.6508841"><ele>531.14</ele><time>2025-12-12T21:18:06.000Z</time></trkpt>
        <trkpt lat="28.6705607" lon="105.650773"><ele>530.13</ele><time>2025-12-12T21:18:12.000Z</time></trkpt>
        <trkpt lat="28.6705046" lon="105.6506778"><ele>529.26</ele><time>2025-12-12T21:18:20.000Z</time></trkpt>
        <trkpt lat="28.6704501" lon="105.6505903"><ele>529.79</ele><time>2025-12-12T21:18:42.000Z</time></trkpt>
        <trkpt lat="28.6703752" lon="105.6505182"><ele>533.15</ele><time>2025-12-12T21:18:52.000Z</time></trkpt>
        <trkpt lat="28.6702903" lon="105.6504644"><ele>535.93</ele><time>2025-12-12T21:19:02.000Z</time></trkpt>
        <trkpt lat="28.6701928" lon="105.650421"><ele>537.81</ele><time>2025-12-12T21:19:14.000Z</time></trkpt>
        <trkpt lat="28.670107" lon="105.6503633"><ele>539.27</ele><time>2025-12-12T21:19:22.000Z</time></trkpt>
        <trkpt lat="28.6700167" lon="105.6503114"><ele>539.8</ele><time>2025-12-12T21:19:30.000Z</time></trkpt>
        <trkpt lat="28.6699322" lon="105.6502591"><ele>540.4</ele><time>2025-12-12T21:20:10.000Z</time></trkpt>
        <trkpt lat="28.6698465" lon="105.6502051"><ele>541.17</ele><time>2025-12-12T21:21:00.000Z</time></trkpt>
        <trkpt lat="28.6697476" lon="105.6501779"><ele>540.24</ele><time>2025-12-12T21:21:08.000Z</time></trkpt>
        <trkpt lat="28.6696526" lon="105.6501642"><ele>540.01</ele><time>2025-12-12T21:21:12.000Z</time></trkpt>
        <trkpt lat="28.6695285" lon="105.6501552"><ele>540.22</ele><time>2025-12-12T21:21:18.000Z</time></trkpt>
        <trkpt lat="28.6694252" lon="105.6500839"><ele>540.17</ele><time>2025-12-12T21:21:24.000Z</time></trkpt>
        <trkpt lat="28.6693537" lon="105.6499812"><ele>539.58</ele><time>2025-12-12T21:21:30.000Z</time></trkpt>
        <trkpt lat="28.6692898" lon="105.6498949"><ele>538.6</ele><time>2025-12-12T21:21:36.000Z</time></trkpt>
        <trkpt lat="28.6692093" lon="105.6498567"><ele>538.34</ele><time>2025-12-12T21:21:48.000Z</time></trkpt>
        <trkpt lat="28.6691176" lon="105.6497943"><ele>538.62</ele><time>2025-12-12T21:21:56.000Z</time></trkpt>
        <trkpt lat="28.6690494" lon="105.6497146"><ele>538.92</ele><time>2025-12-12T21:22:04.000Z</time></trkpt>
        <trkpt lat="28.6689756" lon="105.649645"><ele>538.82</ele><time>2025-12-12T21:22:16.000Z</time></trkpt>
        <trkpt lat="28.6688963" lon="105.6495876"><ele>539.37</ele><time>2025-12-12T21:22:30.000Z</time></trkpt>
        <trkpt lat="28.6688661" lon="105.6494921"><ele>540.8</ele><time>2025-12-12T21:22:40.000Z</time></trkpt>
        <trkpt lat="28.6688728" lon="105.6493858"><ele>542.14</ele><time>2025-12-12T21:22:48.000Z</time></trkpt>
        <trkpt lat="28.6688467" lon="105.6492898"><ele>543.45</ele><time>2025-12-12T21:23:00.000Z</time></trkpt>
        <trkpt lat="28.6687725" lon="105.6492691"><ele>545.07</ele><time>2025-12-12T21:24:00.000Z</time></trkpt>
        <trkpt lat="28.6687535" lon="105.6491899"><ele>552.05</ele><time>2025-12-12T21:24:32.000Z</time></trkpt>
        <trkpt lat="28.6687836" lon="105.6490927"><ele>552.85</ele><time>2025-12-12T21:24:40.000Z</time></trkpt>
        <trkpt lat="28.6688224" lon="105.6489826"><ele>552.18</ele><time>2025-12-12T21:24:50.000Z</time></trkpt>
        <trkpt lat="28.6688721" lon="105.6488818"><ele>550.73</ele><time>2025-12-12T21:25:08.000Z</time></trkpt>
        <trkpt lat="28.6688747" lon="105.6487647"><ele>551.58</ele><time>2025-12-12T21:25:34.000Z</time></trkpt>
        <trkpt lat="28.6688794" lon="105.6486519"><ele>552.49</ele><time>2025-12-12T21:25:50.000Z</time></trkpt>
        <trkpt lat="28.6689204" lon="105.6485518"><ele>552.62</ele><time>2025-12-12T21:26:16.000Z</time></trkpt>
        <trkpt lat="28.6689627" lon="105.6484504"><ele>555.02</ele><time>2025-12-12T21:26:50.000Z</time></trkpt>
        <trkpt lat="28.6689928" lon="105.6483392"><ele>558.07</ele><time>2025-12-12T21:27:06.000Z</time></trkpt>
        <trkpt lat="28.6690487" lon="105.6482368"><ele>560.96</ele><time>2025-12-12T21:27:20.000Z</time></trkpt>
        <trkpt lat="28.6690742" lon="105.648128"><ele>563.6</ele><time>2025-12-12T21:27:38.000Z</time></trkpt>
        <trkpt lat="28.6690983" lon="105.6479817"><ele>565.8</ele><time>2025-12-12T21:31:56.000Z</time></trkpt>
        <trkpt lat="28.6691283" lon="105.6478833"><ele>567.09</ele><time>2025-12-12T21:32:08.000Z</time></trkpt>
        <trkpt lat="28.6691767" lon="105.6477864"><ele>568.38</ele><time>2025-12-12T21:32:26.000Z</time></trkpt>
        <trkpt lat="28.6691806" lon="105.6476396"><ele>570.11</ele><time>2025-12-12T21:33:10.000Z</time></trkpt>
        <trkpt lat="28.6692398" lon="105.6475549"><ele>574.06</ele><time>2025-12-12T21:33:36.000Z</time></trkpt>
        <trkpt lat="28.669335" lon="105.6475153"><ele>577.86</ele><time>2025-12-12T21:34:04.000Z</time></trkpt>
        <trkpt lat="28.6694452" lon="105.6475105"><ele>581.15</ele><time>2025-12-12T21:34:24.000Z</time></trkpt>
        <trkpt lat="28.6695355" lon="105.6475649"><ele>582.76</ele><time>2025-12-12T21:34:40.000Z</time></trkpt>
        <trkpt lat="28.6695909" lon="105.6476573"><ele>583.9</ele><time>2025-12-12T21:35:04.000Z</time></trkpt>
        <trkpt lat="28.6695467" lon="105.64782"><ele>584.03</ele><time>2025-12-12T21:37:00.000Z</time></trkpt>
        <trkpt lat="28.6696433" lon="105.64787"><ele>588.45</ele><time>2025-12-12T21:37:44.000Z</time></trkpt>
        <trkpt lat="28.6697146" lon="105.6478185"><ele>591.82</ele><time>2025-12-12T21:37:56.000Z</time></trkpt>
        <trkpt lat="28.6697917" lon="105.6477644"><ele>594.14</ele><time>2025-12-12T21:38:22.000Z</time></trkpt>
        <trkpt lat="28.669878" lon="105.6477215"><ele>596.96</ele><time>2025-12-12T21:38:40.000Z</time></trkpt>
        <trkpt lat="28.6699665" lon="105.6476929"><ele>598.78</ele><time>2025-12-12T21:39:06.000Z</time></trkpt>
        <trkpt lat="28.6700418" lon="105.6476339"><ele>600.81</ele><time>2025-12-12T21:39:26.000Z</time></trkpt>
        <trkpt lat="28.6701031" lon="105.647675"><ele>603.35</ele><time>2025-12-12T21:39:42.000Z</time></trkpt>
        <trkpt lat="28.6701875" lon="105.6476952"><ele>605.95</ele><time>2025-12-12T21:39:58.000Z</time></trkpt>
        <trkpt lat="28.6702888" lon="105.6476768"><ele>608.12</ele><time>2025-12-12T21:40:26.000Z</time></trkpt>
        <trkpt lat="28.6703894" lon="105.6476792"><ele>610.95</ele><time>2025-12-12T21:40:42.000Z</time></trkpt>
        <trkpt lat="28.6704772" lon="105.6476456"><ele>613.94</ele><time>2025-12-12T21:41:02.000Z</time></trkpt>
        <trkpt lat="28.6705796" lon="105.6476335"><ele>617.24</ele><time>2025-12-12T21:41:20.000Z</time></trkpt>
        <trkpt lat="28.6706552" lon="105.6475697"><ele>620.19</ele><time>2025-12-12T21:41:36.000Z</time></trkpt>
        <trkpt lat="28.670738" lon="105.6475005"><ele>619.98</ele><time>2025-12-12T21:42:18.000Z</time></trkpt>
        <trkpt lat="28.6708107" lon="105.6475309"><ele>619.64</ele><time>2025-12-12T21:42:42.000Z</time></trkpt>
        <trkpt lat="28.6708962" lon="105.6475857"><ele>620.14</ele><time>2025-12-12T21:43:20.000Z</time></trkpt>
        <trkpt lat="28.67098" lon="105.6475583"><ele>621.89</ele><time>2025-12-12T21:45:00.000Z</time></trkpt>
        <trkpt lat="28.6709967" lon="105.64755"><ele>624.47</ele><time>2025-12-12T21:45:08.000Z</time></trkpt>
        <trkpt lat="28.6709273" lon="105.6476051"><ele>624.79</ele><time>2025-12-12T21:45:24.000Z</time></trkpt>
        <trkpt lat="28.670871" lon="105.6477049"><ele>624.96</ele><time>2025-12-12T21:45:36.000Z</time></trkpt>
        <trkpt lat="28.6708522" lon="105.6478316"><ele>626.53</ele><time>2025-12-12T21:46:02.000Z</time></trkpt>
        <trkpt lat="28.670894" lon="105.6479294"><ele>629.91</ele><time>2025-12-12T21:46:18.000Z</time></trkpt>
        <trkpt lat="28.67104" lon="105.6479817"><ele>633.48</ele><time>2025-12-12T21:47:28.000Z</time></trkpt>
        <trkpt lat="28.6710783" lon="105.647885"><ele>639.29</ele><time>2025-12-12T21:48:00.000Z</time></trkpt>
        <trkpt lat="28.6711463" lon="105.6479322"><ele>643.73</ele><time>2025-12-12T21:48:44.000Z</time></trkpt>
        <trkpt lat="28.6711307" lon="105.6480254"><ele>646.9</ele><time>2025-12-12T21:49:08.000Z</time></trkpt>
        <trkpt lat="28.6710955" lon="105.6481313"><ele>650.9</ele><time>2025-12-12T21:49:22.000Z</time></trkpt>
        <trkpt lat="28.6710564" lon="105.6482484"><ele>654.08</ele><time>2025-12-12T21:49:38.000Z</time></trkpt>
        <trkpt lat="28.6710552" lon="105.6483597"><ele>657.14</ele><time>2025-12-12T21:49:54.000Z</time></trkpt>
        <trkpt lat="28.6710497" lon="105.6484688"><ele>660.05</ele><time>2025-12-12T21:50:16.000Z</time></trkpt>
        <trkpt lat="28.6709814" lon="105.6485107"><ele>663.86</ele><time>2025-12-12T21:50:34.000Z</time></trkpt>
        <trkpt lat="28.6708773" lon="105.6485126"><ele>666.03</ele><time>2025-12-12T21:50:46.000Z</time></trkpt>
        <trkpt lat="28.6707759" lon="105.6485408"><ele>668.29</ele><time>2025-12-12T21:50:56.000Z</time></trkpt>
        <trkpt lat="28.670688" lon="105.6485939"><ele>669.11</ele><time>2025-12-12T21:51:08.000Z</time></trkpt>
        <trkpt lat="28.6706456" lon="105.6486832"><ele>669.54</ele><time>2025-12-12T21:51:18.000Z</time></trkpt>
        <trkpt lat="28.6706239" lon="105.6487959"><ele>669.91</ele><time>2025-12-12T21:51:40.000Z</time></trkpt>
        <trkpt lat="28.6706186" lon="105.6489171"><ele>670.59</ele><time>2025-12-12T21:51:52.000Z</time></trkpt>
        <trkpt lat="28.6706156" lon="105.6490539"><ele>670.25</ele><time>2025-12-12T21:52:44.000Z</time></trkpt>
        <trkpt lat="28.67073" lon="105.64896"><ele>671.48</ele><time>2025-12-12T21:54:14.000Z</time></trkpt>
        <trkpt lat="28.6708167" lon="105.6488467"><ele>674.97</ele><time>2025-12-12T21:54:58.000Z</time></trkpt>
        <trkpt lat="28.6708921" lon="105.6487644"><ele>679.33</ele><time>2025-12-12T21:55:20.000Z</time></trkpt>
        <trkpt lat="28.6709153" lon="105.6488329"><ele>682.37</ele><time>2025-12-12T21:56:08.000Z</time></trkpt>
        <trkpt lat="28.6709309" lon="105.64894"><ele>685.18</ele><time>2025-12-12T21:56:26.000Z</time></trkpt>
        <trkpt lat="28.6709155" lon="105.6490636"><ele>687.86</ele><time>2025-12-12T21:56:40.000Z</time></trkpt>
        <trkpt lat="28.6709657" lon="105.6490604"><ele>691.1</ele><time>2025-12-12T21:57:14.000Z</time></trkpt>
        <trkpt lat="28.6710583" lon="105.64909"><ele>694.58</ele><time>2025-12-12T21:58:44.000Z</time></trkpt>
        <trkpt lat="28.6711517" lon="105.6490517"><ele>699.37</ele><time>2025-12-12T21:59:18.000Z</time></trkpt>
        <trkpt lat="28.6712126" lon="105.6491191"><ele>704.59</ele><time>2025-12-12T21:59:28.000Z</time></trkpt>
        <trkpt lat="28.6712073" lon="105.6492271"><ele>707.69</ele><time>2025-12-12T21:59:46.000Z</time></trkpt>
        <trkpt lat="28.6711573" lon="105.6493346"><ele>710.19</ele><time>2025-12-12T22:00:22.000Z</time></trkpt>
        <trkpt lat="28.6710686" lon="105.6493842"><ele>712.34</ele><time>2025-12-12T22:01:14.000Z</time></trkpt>
        <trkpt lat="28.6711383" lon="105.64934"><ele>712.07</ele><time>2025-12-12T22:02:44.000Z</time></trkpt>
        <trkpt lat="28.6712067" lon="105.64925"><ele>712.12</ele><time>2025-12-12T22:02:58.000Z</time></trkpt>
        <trkpt lat="28.6712962" lon="105.6492249"><ele>712.97</ele><time>2025-12-12T22:03:16.000Z</time></trkpt>
        <trkpt lat="28.6712877" lon="105.6491456"><ele>713.46</ele><time>2025-12-12T22:03:58.000Z</time></trkpt>
        <trkpt lat="28.671195" lon="105.64906"><ele>714.38</ele><time>2025-12-12T22:11:15.000Z</time></trkpt>
        <trkpt lat="28.671105" lon="105.649075"><ele>713.53</ele><time>2025-12-12T22:11:35.000Z</time></trkpt>
        <trkpt lat="28.6710178" lon="105.6490477"><ele>713.69</ele><time>2025-12-12T22:12:33.000Z</time></trkpt>
        <trkpt lat="28.6709299" lon="105.6490734"><ele>711.03</ele><time>2025-12-12T22:13:13.000Z</time></trkpt>
        <trkpt lat="28.6708917" lon="105.6489883"><ele>707.36</ele><time>2025-12-12T22:14:19.000Z</time></trkpt>
        <trkpt lat="28.6708533" lon="105.6488667"><ele>704.28</ele><time>2025-12-12T22:14:51.000Z</time></trkpt>
        <trkpt lat="28.6707683" lon="105.64897"><ele>702.83</ele><time>2025-12-12T22:16:09.000Z</time></trkpt>
        <trkpt lat="28.67068" lon="105.6490083"><ele>697.14</ele><time>2025-12-12T22:16:43.000Z</time></trkpt>
        <trkpt lat="28.6706255" lon="105.6490876"><ele>692.86</ele><time>2025-12-12T22:17:01.000Z</time></trkpt>
        <trkpt lat="28.6706027" lon="105.6490287"><ele>688.83</ele><time>2025-12-12T22:17:13.000Z</time></trkpt>
        <trkpt lat="28.6705963" lon="105.6489205"><ele>684.26</ele><time>2025-12-12T22:17:29.000Z</time></trkpt>
        <trkpt lat="28.6706219" lon="105.648797"><ele>680.02</ele><time>2025-12-12T22:17:43.000Z</time></trkpt>
        <trkpt lat="28.670671" lon="105.6486872"><ele>675.84</ele><time>2025-12-12T22:17:53.000Z</time></trkpt>
        <trkpt lat="28.6707331" lon="105.6485879"><ele>673.03</ele><time>2025-12-12T22:18:03.000Z</time></trkpt>
        <trkpt lat="28.6708247" lon="105.6485127"><ele>670.95</ele><time>2025-12-12T22:18:13.000Z</time></trkpt>
        <trkpt lat="28.6709399" lon="105.6484878"><ele>669.64</ele><time>2025-12-12T22:18:21.000Z</time></trkpt>
        <trkpt lat="28.6710421" lon="105.6484788"><ele>668.16</ele><time>2025-12-12T22:18:33.000Z</time></trkpt>
        <trkpt lat="28.6710503" lon="105.6484047"><ele>666.97</ele><time>2025-12-12T22:18:45.000Z</time></trkpt>
        <trkpt lat="28.6710385" lon="105.6483015"><ele>667.29</ele><time>2025-12-12T22:18:59.000Z</time></trkpt>
        <trkpt lat="28.6710266" lon="105.6481911"><ele>667.76</ele><time>2025-12-12T22:19:11.000Z</time></trkpt>
        <trkpt lat="28.6710459" lon="105.6480834"><ele>667.56</ele><time>2025-12-12T22:19:23.000Z</time></trkpt>
        <trkpt lat="28.6710872" lon="105.6479847"><ele>666.12</ele><time>2025-12-12T22:19:41.000Z</time></trkpt>
        <trkpt lat="28.6711146" lon="105.6478789"><ele>663.83</ele><time>2025-12-12T22:20:11.000Z</time></trkpt>
        <trkpt lat="28.6710802" lon="105.6479194"><ele>661.24</ele><time>2025-12-12T22:20:45.000Z</time></trkpt>
        <trkpt lat="28.6709744" lon="105.6479649"><ele>657.48</ele><time>2025-12-12T22:21:19.000Z</time></trkpt>
        <trkpt lat="28.6708921" lon="105.6479256"><ele>653.32</ele><time>2025-12-12T22:21:39.000Z</time></trkpt>
        <trkpt lat="28.6708542" lon="105.647832"><ele>650.51</ele><time>2025-12-12T22:21:57.000Z</time></trkpt>
        <trkpt lat="28.6708655" lon="105.6477196"><ele>645.82</ele><time>2025-12-12T22:22:07.000Z</time></trkpt>
        <trkpt lat="28.6708733" lon="105.6476485"><ele>641.47</ele><time>2025-12-12T22:22:17.000Z</time></trkpt>
        <trkpt lat="28.6708111" lon="105.6476194"><ele>638.64</ele><time>2025-12-12T22:22:49.000Z</time></trkpt>
        <trkpt lat="28.6707368" lon="105.6475588"><ele>636.34</ele><time>2025-12-12T22:23:05.000Z</time></trkpt>
        <trkpt lat="28.6706384" lon="105.6475693"><ele>634.05</ele><time>2025-12-12T22:23:33.000Z</time></trkpt>
        <trkpt lat="28.6705561" lon="105.6476324"><ele>631.44</ele><time>2025-12-12T22:23:49.000Z</time></trkpt>
        <trkpt lat="28.6704645" lon="105.6476734"><ele>628.97</ele><time>2025-12-12T22:24:07.000Z</time></trkpt>
        <trkpt lat="28.6703725" lon="105.6477103"><ele>626.58</ele><time>2025-12-12T22:24:19.000Z</time></trkpt>
        <trkpt lat="28.6702749" lon="105.6477118"><ele>624.65</ele><time>2025-12-12T22:24:31.000Z</time></trkpt>
        <trkpt lat="28.6701781" lon="105.6477249"><ele>622.61</ele><time>2025-12-12T22:24:47.000Z</time></trkpt>
        <trkpt lat="28.6701" lon="105.6476667"><ele>622</ele><time>2025-12-12T22:26:41.000Z</time></trkpt>
        <trkpt lat="28.67001" lon="105.6476567"><ele>621.87</ele><time>2025-12-12T22:26:57.000Z</time></trkpt>
        <trkpt lat="28.6699129" lon="105.6476678"><ele>620.98</ele><time>2025-12-12T22:27:13.000Z</time></trkpt>
        <trkpt lat="28.6698262" lon="105.6477046"><ele>619.78</ele><time>2025-12-12T22:27:47.000Z</time></trkpt>
        <trkpt lat="28.6697377" lon="105.6477256"><ele>617.94</ele><time>2025-12-12T22:28:01.000Z</time></trkpt>
        <trkpt lat="28.6696708" lon="105.6477975"><ele>616.46</ele><time>2025-12-12T22:28:15.000Z</time></trkpt>
        <trkpt lat="28.6696042" lon="105.6478767"><ele>614.11</ele><time>2025-12-12T22:28:29.000Z</time></trkpt>
        <trkpt lat="28.6695683" lon="105.64779"><ele>611.1</ele><time>2025-12-12T22:29:39.000Z</time></trkpt>
        <trkpt lat="28.66952" lon="105.647645"><ele>606.11</ele><time>2025-12-12T22:31:17.000Z</time></trkpt>
        <trkpt lat="28.669465" lon="105.647555"><ele>600</ele><time>2025-12-12T22:33:11.000Z</time></trkpt>
        <trkpt lat="28.669365" lon="105.6475617"><ele>594.58</ele><time>2025-12-12T22:33:27.000Z</time></trkpt>
        <trkpt lat="28.6692721" lon="105.6475994"><ele>591.02</ele><time>2025-12-12T22:33:39.000Z</time></trkpt>
        <trkpt lat="28.6691894" lon="105.6476567"><ele>589.42</ele><time>2025-12-12T22:33:51.000Z</time></trkpt>
        <trkpt lat="28.6691814" lon="105.6477504"><ele>588.33</ele><time>2025-12-12T22:34:07.000Z</time></trkpt>
        <trkpt lat="28.6691611" lon="105.6478625"><ele>587.07</ele><time>2025-12-12T22:34:21.000Z</time></trkpt>
        <trkpt lat="28.6691485" lon="105.6479774"><ele>586.05</ele><time>2025-12-12T22:34:33.000Z</time></trkpt>
        <trkpt lat="28.6691395" lon="105.6481044"><ele>584.83</ele><time>2025-12-12T22:34:43.000Z</time></trkpt>
        <trkpt lat="28.6691167" lon="105.648213"><ele>582.92</ele><time>2025-12-12T22:34:55.000Z</time></trkpt>
        <trkpt lat="28.6690616" lon="105.6483009"><ele>580.07</ele><time>2025-12-12T22:35:05.000Z</time></trkpt>
        <trkpt lat="28.6690125" lon="105.648399"><ele>577.72</ele><time>2025-12-12T22:35:15.000Z</time></trkpt>
        <trkpt lat="28.6689988" lon="105.648507"><ele>575.65</ele><time>2025-12-12T22:35:59.000Z</time></trkpt>
        <trkpt lat="28.6689662" lon="105.6486026"><ele>573.91</ele><time>2025-12-12T22:36:51.000Z</time></trkpt>
        <trkpt lat="28.6689276" lon="105.6486968"><ele>573.3</ele><time>2025-12-12T22:37:05.000Z</time></trkpt>
        <trkpt lat="28.6688996" lon="105.6488173"><ele>572.31</ele><time>2025-12-12T22:37:17.000Z</time></trkpt>
        <trkpt lat="28.668867" lon="105.6489288"><ele>570.71</ele><time>2025-12-12T22:37:27.000Z</time></trkpt>
        <trkpt lat="28.668815" lon="105.6490234"><ele>569.07</ele><time>2025-12-12T22:37:35.000Z</time></trkpt>
        <trkpt lat="28.6687772" lon="105.6491403"><ele>567.41</ele><time>2025-12-12T22:37:45.000Z</time></trkpt>
        <trkpt lat="28.6687481" lon="105.6492536"><ele>564.31</ele><time>2025-12-12T22:37:57.000Z</time></trkpt>
        <trkpt lat="28.668801" lon="105.6493487"><ele>561.55</ele><time>2025-12-12T22:38:11.000Z</time></trkpt>
        <trkpt lat="28.6689517" lon="105.64935"><ele>559.64</ele><time>2025-12-12T22:39:15.000Z</time></trkpt>
        <trkpt lat="28.6689117" lon="105.6494633"><ele>557.47</ele><time>2025-12-12T22:43:01.000Z</time></trkpt>
        <trkpt lat="28.6689383" lon="105.6495767"><ele>557.35</ele><time>2025-12-12T22:43:09.000Z</time></trkpt>
        <trkpt lat="28.6690031" lon="105.649666"><ele>556.13</ele><time>2025-12-12T22:43:17.000Z</time></trkpt>
        <trkpt lat="28.669081" lon="105.6497331"><ele>553.96</ele><time>2025-12-12T22:43:27.000Z</time></trkpt>
        <trkpt lat="28.669157" lon="105.6498082"><ele>552.47</ele><time>2025-12-12T22:43:37.000Z</time></trkpt>
        <trkpt lat="28.6692463" lon="105.6498634"><ele>551.54</ele><time>2025-12-12T22:43:49.000Z</time></trkpt>
        <trkpt lat="28.6693311" lon="105.649918"><ele>550.92</ele><time>2025-12-12T22:43:57.000Z</time></trkpt>
        <trkpt lat="28.6693931" lon="105.6500025"><ele>551.38</ele><time>2025-12-12T22:44:05.000Z</time></trkpt>
        <trkpt lat="28.6694363" lon="105.6500963"><ele>552.6</ele><time>2025-12-12T22:44:13.000Z</time></trkpt>
        <trkpt lat="28.6695062" lon="105.6501659"><ele>553.72</ele><time>2025-12-12T22:44:23.000Z</time></trkpt>
        <trkpt lat="28.6695926" lon="105.6502043"><ele>552.93</ele><time>2025-12-12T22:44:33.000Z</time></trkpt>
        <trkpt lat="28.6696893" lon="105.6501956"><ele>551.16</ele><time>2025-12-12T22:44:47.000Z</time></trkpt>
        <trkpt lat="28.6697848" lon="105.6502056"><ele>549.07</ele><time>2025-12-12T22:44:57.000Z</time></trkpt>
        <trkpt lat="28.6698737" lon="105.6502374"><ele>548.18</ele><time>2025-12-12T22:45:09.000Z</time></trkpt>
        <trkpt lat="28.6699695" lon="105.6502744"><ele>548.45</ele><time>2025-12-12T22:45:15.000Z</time></trkpt>
        <trkpt lat="28.6700592" lon="105.6503275"><ele>548.47</ele><time>2025-12-12T22:45:29.000Z</time></trkpt>
        <trkpt lat="28.6701463" lon="105.6503672"><ele>548.1</ele><time>2025-12-12T22:45:39.000Z</time></trkpt>
        <trkpt lat="28.6702326" lon="105.6504032"><ele>548.23</ele><time>2025-12-12T22:45:51.000Z</time></trkpt>
        <trkpt lat="28.6703101" lon="105.6504704"><ele>550.15</ele><time>2025-12-12T22:46:01.000Z</time></trkpt>
        <trkpt lat="28.6703908" lon="105.6505306"><ele>551.76</ele><time>2025-12-12T22:46:11.000Z</time></trkpt>
        <trkpt lat="28.6704456" lon="105.6506179"><ele>552.98</ele><time>2025-12-12T22:46:21.000Z</time></trkpt>
        <trkpt lat="28.670515" lon="105.6506896"><ele>552.99</ele><time>2025-12-12T22:46:37.000Z</time></trkpt>
        <trkpt lat="28.670571" lon="105.6507715"><ele>551.27</ele><time>2025-12-12T22:46:49.000Z</time></trkpt>
        <trkpt lat="28.6706223" lon="105.6508594"><ele>549.65</ele><time>2025-12-12T22:47:01.000Z</time></trkpt>
        <trkpt lat="28.6706787" lon="105.6509566"><ele>547.31</ele><time>2025-12-12T22:47:13.000Z</time></trkpt>
        <trkpt lat="28.6707176" lon="105.6510576"><ele>544.64</ele><time>2025-12-12T22:47:25.000Z</time></trkpt>
        <trkpt lat="28.6707716" lon="105.6511531"><ele>541.91</ele><time>2025-12-12T22:47:37.000Z</time></trkpt>
        <trkpt lat="28.6708094" lon="105.6512533"><ele>540.27</ele><time>2025-12-12T22:47:49.000Z</time></trkpt>
        <trkpt lat="28.6708536" lon="105.6513477"><ele>538.95</ele><time>2025-12-12T22:48:01.000Z</time></trkpt>
        <trkpt lat="28.670907" lon="105.6514472"><ele>537.08</ele><time>2025-12-12T22:48:13.000Z</time></trkpt>
        <trkpt lat="28.6709589" lon="105.6515412"><ele>535.5</ele><time>2025-12-12T22:48:27.000Z</time></trkpt>
        <trkpt lat="28.6710173" lon="105.6516218"><ele>533.35</ele><time>2025-12-12T22:48:39.000Z</time></trkpt>
        <trkpt lat="28.6710766" lon="105.6516989"><ele>532.12</ele><time>2025-12-12T22:48:57.000Z</time></trkpt>
        <trkpt lat="28.6711508" lon="105.651773"><ele>531.17</ele><time>2025-12-12T22:49:11.000Z</time></trkpt>
        <trkpt lat="28.6712064" lon="105.6518605"><ele>529.55</ele><time>2025-12-12T22:49:21.000Z</time></trkpt>
        <trkpt lat="28.6712479" lon="105.6519584"><ele>528.62</ele><time>2025-12-12T22:49:31.000Z</time></trkpt>
        <trkpt lat="28.6712911" lon="105.6520734"><ele>526.94</ele><time>2025-12-12T22:49:41.000Z</time></trkpt>
        <trkpt lat="28.6713297" lon="105.6521926"><ele>524.86</ele><time>2025-12-12T22:49:51.000Z</time></trkpt>
        <trkpt lat="28.6713958" lon="105.6522918"><ele>522.42</ele><time>2025-12-12T22:50:03.000Z</time></trkpt>
        <trkpt lat="28.6714475" lon="105.6523829"><ele>519.14</ele><time>2025-12-12T22:50:11.000Z</time></trkpt>
        <trkpt lat="28.6714863" lon="105.6524778"><ele>515.55</ele><time>2025-12-12T22:50:21.000Z</time></trkpt>
        <trkpt lat="28.6715294" lon="105.6525749"><ele>511.83</ele><time>2025-12-12T22:50:37.000Z</time></trkpt>
        <trkpt lat="28.6715936" lon="105.6526579"><ele>509.93</ele><time>2025-12-12T22:50:47.000Z</time></trkpt>
        <trkpt lat="28.6716807" lon="105.652692"><ele>508.62</ele><time>2025-12-12T22:50:59.000Z</time></trkpt>
        <trkpt lat="28.6717776" lon="105.6527239"><ele>507.8</ele><time>2025-12-12T22:51:17.000Z</time></trkpt>
        <trkpt lat="28.671855" lon="105.6527995"><ele>507.37</ele><time>2025-12-12T22:51:27.000Z</time></trkpt>
        <trkpt lat="28.6719049" lon="105.6528928"><ele>507.25</ele><time>2025-12-12T22:51:37.000Z</time></trkpt>
        <trkpt lat="28.6719301" lon="105.6529948"><ele>508.52</ele><time>2025-12-12T22:51:47.000Z</time></trkpt>
        <trkpt lat="28.671968" lon="105.6530946"><ele>509.41</ele><time>2025-12-12T22:51:57.000Z</time></trkpt>
        <trkpt lat="28.6720051" lon="105.6531933"><ele>509.06</ele><time>2025-12-12T22:52:07.000Z</time></trkpt>
        <trkpt lat="28.6720526" lon="105.6532874"><ele>509.21</ele><time>2025-12-12T22:52:17.000Z</time></trkpt>
        <trkpt lat="28.672099" lon="105.6533781"><ele>509.59</ele><time>2025-12-12T22:52:25.000Z</time></trkpt>
        <trkpt lat="28.6721748" lon="105.6534478"><ele>509.08</ele><time>2025-12-12T22:52:43.000Z</time></trkpt>
        <trkpt lat="28.6722686" lon="105.6534836"><ele>507.97</ele><time>2025-12-12T22:52:53.000Z</time></trkpt>
        <trkpt lat="28.6723623" lon="105.6535084"><ele>506.95</ele><time>2025-12-12T22:53:03.000Z</time></trkpt>
        <trkpt lat="28.6724629" lon="105.653533"><ele>505.29</ele><time>2025-12-12T22:53:17.000Z</time></trkpt>
        <trkpt lat="28.6725462" lon="105.6535995"><ele>503.27</ele><time>2025-12-12T22:53:27.000Z</time></trkpt>
        <trkpt lat="28.6725909" lon="105.6536986"><ele>501.05</ele><time>2025-12-12T22:53:39.000Z</time></trkpt>
        <trkpt lat="28.672597" lon="105.6538167"><ele>499.31</ele><time>2025-12-12T22:53:51.000Z</time></trkpt>
        <trkpt lat="28.6725601" lon="105.6539277"><ele>497.88</ele><time>2025-12-12T22:54:03.000Z</time></trkpt>
        <trkpt lat="28.6725445" lon="105.65404"><ele>496.43</ele><time>2025-12-12T22:54:15.000Z</time></trkpt>
        <trkpt lat="28.672541" lon="105.6541467"><ele>494.91</ele><time>2025-12-12T22:54:47.000Z</time></trkpt>
        <trkpt lat="28.6725353" lon="105.6542521"><ele>494.17</ele><time>2025-12-12T22:54:59.000Z</time></trkpt>
        <trkpt lat="28.6725138" lon="105.6543658"><ele>493.24</ele><time>2025-12-12T22:55:11.000Z</time></trkpt>
        <trkpt lat="28.6725103" lon="105.6544839"><ele>491.97</ele><time>2025-12-12T22:55:25.000Z</time></trkpt>
        <trkpt lat="28.6725255" lon="105.6545956"><ele>489.96</ele><time>2025-12-12T22:55:39.000Z</time></trkpt>
        <trkpt lat="28.672555" lon="105.6547067"><ele>487.53</ele><time>2025-12-12T22:58:01.000Z</time></trkpt>
        <trkpt lat="28.6725933" lon="105.654805"><ele>485.15</ele><time>2025-12-12T22:58:21.000Z</time></trkpt>
        <trkpt lat="28.6726613" lon="105.6548765"><ele>482.59</ele><time>2025-12-12T22:58:37.000Z</time></trkpt>
        <trkpt lat="28.6727422" lon="105.6549408"><ele>480.92</ele><time>2025-12-12T22:58:49.000Z</time></trkpt>
        <trkpt lat="28.672811" lon="105.6550138"><ele>480.26</ele><time>2025-12-12T22:59:01.000Z</time></trkpt>
        <trkpt lat="28.6728972" lon="105.6550594"><ele>479.33</ele><time>2025-12-12T22:59:13.000Z</time></trkpt>
        <trkpt lat="28.6729972" lon="105.6550787"><ele>478.11</ele><time>2025-12-12T22:59:25.000Z</time></trkpt>
        <trkpt lat="28.6731074" lon="105.6550674"><ele>478.28</ele><time>2025-12-12T22:59:37.000Z</time></trkpt>
        <trkpt lat="28.6732039" lon="105.6550409"><ele>479.02</ele><time>2025-12-12T22:59:57.000Z</time></trkpt>
        <trkpt lat="28.6733003" lon="105.6550243"><ele>478.62</ele><time>2025-12-12T23:00:09.000Z</time></trkpt>
        <trkpt lat="28.6733968" lon="105.6550036"><ele>477.15</ele><time>2025-12-12T23:00:21.000Z</time></trkpt>
        <trkpt lat="28.673427" lon="105.6550085"><ele>475.45</ele><time>2025-12-12T23:00:29.000Z</time></trkpt>
        <trkpt lat="28.6735057" lon="105.6550095"><ele>473.62</ele><time>2025-12-12T23:00:53.000Z</time></trkpt>
        <trkpt lat="28.6735969" lon="105.6550355"><ele>471.94</ele><time>2025-12-12T23:01:03.000Z</time></trkpt>
        <trkpt lat="28.6736719" lon="105.6551017"><ele>471.1</ele><time>2025-12-12T23:01:41.000Z</time></trkpt>
        <trkpt lat="28.6737513" lon="105.6551622"><ele>471.32</ele><time>2025-12-12T23:01:53.000Z</time></trkpt>
        <trkpt lat="28.673835" lon="105.6552238"><ele>469.89</ele><time>2025-12-12T23:02:07.000Z</time></trkpt>
        <trkpt lat="28.6739228" lon="105.6552207"><ele>468.13</ele><time>2025-12-12T23:02:17.000Z</time></trkpt>
        <trkpt lat="28.6740243" lon="105.6552157"><ele>467.47</ele><time>2025-12-12T23:02:29.000Z</time></trkpt>
        <trkpt lat="28.6741304" lon="105.6552257"><ele>467.36</ele><time>2025-12-12T23:02:41.000Z</time></trkpt>
        <trkpt lat="28.6742336" lon="105.6552442"><ele>467.72</ele><time>2025-12-12T23:02:51.000Z</time></trkpt>
        <trkpt lat="28.6743386" lon="105.6552647"><ele>467.41</ele><time>2025-12-12T23:03:03.000Z</time></trkpt>
        <trkpt lat="28.6744291" lon="105.6553106"><ele>467.32</ele><time>2025-12-12T23:03:13.000Z</time></trkpt>
        <trkpt lat="28.674519" lon="105.6553704"><ele>467.74</ele><time>2025-12-12T23:03:23.000Z</time></trkpt>
        <trkpt lat="28.6746132" lon="105.6553974"><ele>467.85</ele><time>2025-12-12T23:03:35.000Z</time></trkpt>
        <trkpt lat="28.6747068" lon="105.6554434"><ele>468.13</ele><time>2025-12-12T23:03:47.000Z</time></trkpt>
        <trkpt lat="28.6747864" lon="105.6555074"><ele>467.6</ele><time>2025-12-12T23:03:59.000Z</time></trkpt>
        <trkpt lat="28.6748633" lon="105.6555723"><ele>467.17</ele><time>2025-12-12T23:04:11.000Z</time></trkpt>
        <trkpt lat="28.6749452" lon="105.6556338"><ele>468.56</ele><time>2025-12-12T23:04:21.000Z</time></trkpt>
        <trkpt lat="28.6750156" lon="105.6557034"><ele>469.91</ele><time>2025-12-12T23:04:37.000Z</time></trkpt>
        <trkpt lat="28.6750905" lon="105.6557757"><ele>468.74</ele><time>2025-12-12T23:05:01.000Z</time></trkpt>
        <trkpt lat="28.6751666" lon="105.6558359"><ele>467.31</ele><time>2025-12-12T23:05:15.000Z</time></trkpt>
        <trkpt lat="28.6752181" lon="105.6559226"><ele>467.3</ele><time>2025-12-12T23:05:25.000Z</time></trkpt>
        <trkpt lat="28.6753057" lon="105.6559593"><ele>467.13</ele><time>2025-12-12T23:05:39.000Z</time></trkpt>
        <trkpt lat="28.6754028" lon="105.6559665"><ele>466.47</ele><time>2025-12-12T23:05:51.000Z</time></trkpt>
        <trkpt lat="28.6755134" lon="105.6559562"><ele>466.31</ele><time>2025-12-12T23:06:03.000Z</time></trkpt>
        <trkpt lat="28.6756039" lon="105.6560074"><ele>465.06</ele><time>2025-12-12T23:06:11.000Z</time></trkpt>
        <trkpt lat="28.6756356" lon="105.6561047"><ele>464.6</ele><time>2025-12-12T23:06:19.000Z</time></trkpt>
        <trkpt lat="28.67565" lon="105.6562168"><ele>464.52</ele><time>2025-12-12T23:06:31.000Z</time></trkpt>
        <trkpt lat="28.6756602" lon="105.6563319"><ele>464.55</ele><time>2025-12-12T23:06:45.000Z</time></trkpt>
        <trkpt lat="28.6756905" lon="105.6564378"><ele>464.27</ele><time>2025-12-12T23:06:59.000Z</time></trkpt>
        <trkpt lat="28.675721" lon="105.6565426"><ele>462.35</ele><time>2025-12-12T23:07:13.000Z</time></trkpt>
        <trkpt lat="28.6757463" lon="105.6566503"><ele>459.79</ele><time>2025-12-12T23:07:25.000Z</time></trkpt>
        <trkpt lat="28.6757334" lon="105.6567539"><ele>457.21</ele><time>2025-12-12T23:07:37.000Z</time></trkpt>
        <trkpt lat="28.6757067" lon="105.6568584"><ele>453.21</ele><time>2025-12-12T23:07:57.000Z</time></trkpt>
        <trkpt lat="28.6756546" lon="105.656957"><ele>450.19</ele><time>2025-12-12T23:08:11.000Z</time></trkpt>
        <trkpt lat="28.6755889" lon="105.6570447"><ele>449.72</ele><time>2025-12-12T23:08:27.000Z</time></trkpt>
        <trkpt lat="28.6755307" lon="105.6571312"><ele>447.99</ele><time>2025-12-12T23:08:39.000Z</time></trkpt>
        <trkpt lat="28.6754948" lon="105.6572419"><ele>445.84</ele><time>2025-12-12T23:09:36.000Z</time></trkpt>
        <trkpt lat="28.6754551" lon="105.6573405"><ele>443.63</ele><time>2025-12-12T23:09:48.000Z</time></trkpt>
        <trkpt lat="28.6753957" lon="105.65742"><ele>441.51</ele><time>2025-12-12T23:10:00.000Z</time></trkpt>
        <trkpt lat="28.6753476" lon="105.6575138"><ele>440.56</ele><time>2025-12-12T23:10:16.000Z</time></trkpt>
        <trkpt lat="28.6753547" lon="105.6576177"><ele>438.47</ele><time>2025-12-12T23:10:58.000Z</time></trkpt>
        <trkpt lat="28.6753179" lon="105.6577125"><ele>434.22</ele><time>2025-12-12T23:11:08.000Z</time></trkpt>
        <trkpt lat="28.6753147" lon="105.657826"><ele>432.41</ele><time>2025-12-12T23:11:18.000Z</time></trkpt>
        <trkpt lat="28.6753457" lon="105.6579301"><ele>430.9</ele><time>2025-12-12T23:11:28.000Z</time></trkpt>
        <trkpt lat="28.6754305" lon="105.6579835"><ele>429.87</ele><time>2025-12-12T23:11:40.000Z</time></trkpt>
        <trkpt lat="28.6755121" lon="105.6580422"><ele>428.46</ele><time>2025-12-12T23:12:04.000Z</time></trkpt>
        <trkpt lat="28.6755307" lon="105.6581406"><ele>426.59</ele><time>2025-12-12T23:12:10.000Z</time></trkpt>
        <trkpt lat="28.675469" lon="105.6582373"><ele>425.26</ele><time>2025-12-12T23:12:20.000Z</time></trkpt>
        <trkpt lat="28.6753791" lon="105.6583142"><ele>423.3</ele><time>2025-12-12T23:12:30.000Z</time></trkpt>
        <trkpt lat="28.6752957" lon="105.6583844"><ele>422.01</ele><time>2025-12-12T23:12:40.000Z</time></trkpt>
        <trkpt lat="28.6752355" lon="105.6584667"><ele>421.62</ele><time>2025-12-12T23:12:50.000Z</time></trkpt>
        <trkpt lat="28.6752933" lon="105.6583883"><ele>421.22</ele><time>2025-12-12T23:14:36.000Z</time></trkpt>
        <trkpt lat="28.6752583" lon="105.65849"><ele>419.62</ele><time>2025-12-12T23:16:08.000Z</time></trkpt>
        <trkpt lat="28.6752017" lon="105.6585933"><ele>420.86</ele><time>2025-12-12T23:16:52.000Z</time></trkpt>
        <trkpt lat="28.6751577" lon="105.6586938"><ele>421.35</ele><time>2025-12-12T23:17:06.000Z</time></trkpt>
        <trkpt lat="28.6751134" lon="105.6587939"><ele>421.07</ele><time>2025-12-12T23:17:20.000Z</time></trkpt>
        <trkpt lat="28.6750829" lon="105.6588962"><ele>420.95</ele><time>2025-12-12T23:17:32.000Z</time></trkpt>
        <trkpt lat="28.6750521" lon="105.6589945"><ele>419.47</ele><time>2025-12-12T23:17:46.000Z</time></trkpt>
        <trkpt lat="28.6750492" lon="105.6591074"><ele>416.86</ele><time>2025-12-12T23:18:00.000Z</time></trkpt>
        <trkpt lat="28.6750686" lon="105.6592184"><ele>413.82</ele><time>2025-12-12T23:18:12.000Z</time></trkpt>
        <trkpt lat="28.675093" lon="105.6593355"><ele>411.53</ele><time>2025-12-12T23:18:24.000Z</time></trkpt>
        <trkpt lat="28.6750947" lon="105.659452"><ele>408.98</ele><time>2025-12-12T23:18:34.000Z</time></trkpt>
        <trkpt lat="28.6750927" lon="105.6595678"><ele>406.67</ele><time>2025-12-12T23:18:44.000Z</time></trkpt>
        <trkpt lat="28.6750951" lon="105.6596895"><ele>405.43</ele><time>2025-12-12T23:19:00.000Z</time></trkpt>
        <trkpt lat="28.6751207" lon="105.6597969"><ele>403.57</ele><time>2025-12-12T23:19:10.000Z</time></trkpt>
        <trkpt lat="28.6751385" lon="105.6598987"><ele>402.89</ele><time>2025-12-12T23:19:20.000Z</time></trkpt>
        <trkpt lat="28.6751535" lon="105.6600054"><ele>402.55</ele><time>2025-12-12T23:19:32.000Z</time></trkpt>
        <trkpt lat="28.6751684" lon="105.6601169"><ele>401.11</ele><time>2025-12-12T23:19:44.000Z</time></trkpt>
        <trkpt lat="28.6751746" lon="105.6602341"><ele>399.39</ele><time>2025-12-12T23:19:54.000Z</time></trkpt>
        <trkpt lat="28.6751476" lon="105.6603367"><ele>398.75</ele><time>2025-12-12T23:20:04.000Z</time></trkpt>
        <trkpt lat="28.675075" lon="105.6604036"><ele>397.65</ele><time>2025-12-12T23:20:14.000Z</time></trkpt>
        <trkpt lat="28.6749767" lon="105.660418"><ele>394.66</ele><time>2025-12-12T23:20:22.000Z</time></trkpt>
        <trkpt lat="28.6748914" lon="105.6603603"><ele>391.88</ele><time>2025-12-12T23:20:30.000Z</time></trkpt>
        <trkpt lat="28.674814" lon="105.6602765"><ele>389.65</ele><time>2025-12-12T23:20:40.000Z</time></trkpt>
        <trkpt lat="28.6747345" lon="105.6602057"><ele>387.91</ele><time>2025-12-12T23:20:56.000Z</time></trkpt>
        <trkpt lat="28.6746479" lon="105.6601518"><ele>386.23</ele><time>2025-12-12T23:21:08.000Z</time></trkpt>
        <trkpt lat="28.674554" lon="105.6601421"><ele>384.45</ele><time>2025-12-12T23:21:22.000Z</time></trkpt>
        <trkpt lat="28.6744729" lon="105.6601911"><ele>382.88</ele><time>2025-12-12T23:21:34.000Z</time></trkpt>
        <trkpt lat="28.6744484" lon="105.6602981"><ele>382.16</ele><time>2025-12-12T23:21:48.000Z</time></trkpt>
        <trkpt lat="28.6744895" lon="105.6604054"><ele>380.84</ele><time>2025-12-12T23:22:14.000Z</time></trkpt>
        <trkpt lat="28.6745699" lon="105.6604872"><ele>378.59</ele><time>2025-12-12T23:22:42.000Z</time></trkpt>
        <trkpt lat="28.6746606" lon="105.6605568"><ele>375.41</ele><time>2025-12-12T23:23:04.000Z</time></trkpt>
        <trkpt lat="28.6747376" lon="105.6606305"><ele>372.48</ele><time>2025-12-12T23:23:18.000Z</time></trkpt>
        <trkpt lat="28.6748013" lon="105.66071"><ele>370.85</ele><time>2025-12-12T23:23:30.000Z</time></trkpt>
        <trkpt lat="28.6748518" lon="105.6607992"><ele>370.23</ele><time>2025-12-12T23:23:44.000Z</time></trkpt>
        <trkpt lat="28.6749038" lon="105.660893"><ele>368.93</ele><time>2025-12-12T23:23:56.000Z</time></trkpt>
        <trkpt lat="28.6749598" lon="105.6609865"><ele>367.19</ele><time>2025-12-12T23:24:08.000Z</time></trkpt>
        <trkpt lat="28.6750252" lon="105.6610893"><ele>365.13</ele><time>2025-12-12T23:24:20.000Z</time></trkpt>
        <trkpt lat="28.6750864" lon="105.6611901"><ele>362.62</ele><time>2025-12-12T23:24:32.000Z</time></trkpt>
        <trkpt lat="28.6751367" lon="105.6613009"><ele>362.05</ele><time>2025-12-12T23:24:44.000Z</time></trkpt>
        <trkpt lat="28.6751831" lon="105.6614125"><ele>361.26</ele><time>2025-12-12T23:24:56.000Z</time></trkpt>
        <trkpt lat="28.6752574" lon="105.661495"><ele>360.85</ele><time>2025-12-12T23:25:06.000Z</time></trkpt>
        <trkpt lat="28.6753387" lon="105.6615489"><ele>359.49</ele><time>2025-12-12T23:25:24.000Z</time></trkpt>
        <trkpt lat="28.6754112" lon="105.6616238"><ele>358.59</ele><time>2025-12-12T23:25:34.000Z</time></trkpt>
        <trkpt lat="28.675487" lon="105.6616973"><ele>359.03</ele><time>2025-12-12T23:25:46.000Z</time></trkpt>
        <trkpt lat="28.6755552" lon="105.6617805"><ele>356.86</ele><time>2025-12-12T23:25:56.000Z</time></trkpt>
        <trkpt lat="28.6756203" lon="105.661856"><ele>354.99</ele><time>2025-12-12T23:26:06.000Z</time></trkpt>
        <trkpt lat="28.6756997" lon="105.6619145"><ele>353.7</ele><time>2025-12-12T23:26:18.000Z</time></trkpt>
        <trkpt lat="28.6757708" lon="105.6620008"><ele>352.63</ele><time>2025-12-12T23:26:26.000Z</time></trkpt>
        <trkpt lat="28.675842" lon="105.6620969"><ele>350.55</ele><time>2025-12-12T23:26:36.000Z</time></trkpt>
        <trkpt lat="28.6758897" lon="105.6622045"><ele>347.13</ele><time>2025-12-12T23:26:46.000Z</time></trkpt>
        <trkpt lat="28.675905" lon="105.6623202"><ele>344.67</ele><time>2025-12-12T23:26:56.000Z</time></trkpt>
        <trkpt lat="28.6758885" lon="105.6624451"><ele>342.87</ele><time>2025-12-12T23:27:06.000Z</time></trkpt>
        <trkpt lat="28.6758515" lon="105.6625712"><ele>341.55</ele><time>2025-12-12T23:27:16.000Z</time></trkpt>
        <trkpt lat="28.675804" lon="105.6626752"><ele>340.15</ele><time>2025-12-12T23:27:26.000Z</time></trkpt>
        <trkpt lat="28.6757578" lon="105.6627769"><ele>339.05</ele><time>2025-12-12T23:27:36.000Z</time></trkpt>
        <trkpt lat="28.675694" lon="105.6628573"><ele>337.74</ele><time>2025-12-12T23:27:46.000Z</time></trkpt>
        <trkpt lat="28.6756061" lon="105.6629142"><ele>337.29</ele><time>2025-12-12T23:28:00.000Z</time></trkpt>
        <trkpt lat="28.6754959" lon="105.6629402"><ele>336.26</ele><time>2025-12-12T23:28:14.000Z</time></trkpt>
        <trkpt lat="28.6753908" lon="105.6629269"><ele>335.59</ele><time>2025-12-12T23:28:22.000Z</time></trkpt>
        <trkpt lat="28.6752862" lon="105.6629284"><ele>333.83</ele><time>2025-12-12T23:28:32.000Z</time></trkpt>
        <trkpt lat="28.6752183" lon="105.6629933"><ele>330.68</ele><time>2025-12-12T23:29:54.000Z</time></trkpt>
        <trkpt lat="28.6751717" lon="105.6630967"><ele>329.57</ele><time>2025-12-12T23:30:02.000Z</time></trkpt>
        <trkpt lat="28.6751179" lon="105.6631873"><ele>329.28</ele><time>2025-12-12T23:30:12.000Z</time></trkpt>
        <trkpt lat="28.675081" lon="105.663286"><ele>329.2</ele><time>2025-12-12T23:30:22.000Z</time></trkpt>
        <trkpt lat="28.6750543" lon="105.6633871"><ele>327.57</ele><time>2025-12-12T23:30:32.000Z</time></trkpt>
        <trkpt lat="28.675017" lon="105.6634928"><ele>326.46</ele><time>2025-12-12T23:30:42.000Z</time></trkpt>
        <trkpt lat="28.6749801" lon="105.6635988"><ele>325.1</ele><time>2025-12-12T23:30:52.000Z</time></trkpt>
        <trkpt lat="28.6749321" lon="105.6636994"><ele>323.85</ele><time>2025-12-12T23:31:02.000Z</time></trkpt>
        <trkpt lat="28.6748737" lon="105.6637917"><ele>321.55</ele><time>2025-12-12T23:31:12.000Z</time></trkpt>
        <trkpt lat="28.6748285" lon="105.6638923"><ele>319.16</ele><time>2025-12-12T23:31:22.000Z</time></trkpt>
        <trkpt lat="28.6747902" lon="105.6640066"><ele>317.29</ele><time>2025-12-12T23:31:32.000Z</time></trkpt>
        <trkpt lat="28.6747543" lon="105.6641019"><ele>315.18</ele><time>2025-12-12T23:31:46.000Z</time></trkpt>
        <trkpt lat="28.6747474" lon="105.664202"><ele>313.94</ele><time>2025-12-12T23:32:14.000Z</time></trkpt>
        <trkpt lat="28.6747471" lon="105.6643094"><ele>311.43</ele><time>2025-12-12T23:32:28.000Z</time></trkpt>
        <trkpt lat="28.6747548" lon="105.6644171"><ele>307.8</ele><time>2025-12-12T23:32:40.000Z</time></trkpt>
        <trkpt lat="28.6747804" lon="105.6645244"><ele>304.75</ele><time>2025-12-12T23:32:54.000Z</time></trkpt>
        <trkpt lat="28.6747839" lon="105.664634"><ele>301.93</ele><time>2025-12-12T23:33:06.000Z</time></trkpt>
        <trkpt lat="28.6747802" lon="105.6647405"><ele>298</ele><time>2025-12-12T23:33:16.000Z</time></trkpt>
        <trkpt lat="28.6747693" lon="105.6648469"><ele>296.11</ele><time>2025-12-12T23:33:26.000Z</time></trkpt>
        <trkpt lat="28.6747538" lon="105.6649572"><ele>294.69</ele><time>2025-12-12T23:33:40.000Z</time></trkpt>
        <trkpt lat="28.6747473" lon="105.6650764"><ele>292.54</ele><time>2025-12-12T23:33:52.000Z</time></trkpt>
        <trkpt lat="28.6747448" lon="105.6652038"><ele>291.66</ele><time>2025-12-12T23:34:04.000Z</time></trkpt>
        <trkpt lat="28.6747198" lon="105.6653222"><ele>290.95</ele><time>2025-12-12T23:34:12.000Z</time></trkpt>
        <trkpt lat="28.6746675" lon="105.6654341"><ele>289.98</ele><time>2025-12-12T23:34:22.000Z</time></trkpt>
        <trkpt lat="28.674615" lon="105.6655199"><ele>288.27</ele><time>2025-12-12T23:34:38.000Z</time></trkpt>
        <trkpt lat="28.6745796" lon="105.6656254"><ele>285.1</ele><time>2025-12-12T23:34:52.000Z</time></trkpt>
        <trkpt lat="28.6745928" lon="105.6657285"><ele>282.56</ele><time>2025-12-12T23:35:06.000Z</time></trkpt>
        <trkpt lat="28.6746723" lon="105.6658029"><ele>281.37</ele><time>2025-12-12T23:35:50.000Z</time></trkpt>
        <trkpt lat="28.674728" lon="105.6659132"><ele>281.08</ele><time>2025-12-12T23:36:38.000Z</time></trkpt>
        <trkpt lat="28.6747575" lon="105.6660207"><ele>281.13</ele><time>2025-12-12T23:36:56.000Z</time></trkpt>
        <trkpt lat="28.674742" lon="105.666131"><ele>279.87</ele><time>2025-12-12T23:37:08.000Z</time></trkpt>
        <trkpt lat="28.6747385" lon="105.6662419"><ele>279.37</ele><time>2025-12-12T23:37:18.000Z</time></trkpt>
        <trkpt lat="28.6747833" lon="105.6663363"><ele>278.52</ele><time>2025-12-12T23:37:28.000Z</time></trkpt>
        <trkpt lat="28.6748505" lon="105.6664346"><ele>275.97</ele><time>2025-12-12T23:37:38.000Z</time></trkpt>
        <trkpt lat="28.6749325" lon="105.6665111"><ele>274.14</ele><time>2025-12-12T23:37:48.000Z</time></trkpt>
        <trkpt lat="28.6749936" lon="105.6666163"><ele>273.48</ele><time>2025-12-12T23:38:00.000Z</time></trkpt>
        <trkpt lat="28.6750199" lon="105.6667408"><ele>273.36</ele><time>2025-12-12T23:38:10.000Z</time></trkpt>
        <trkpt lat="28.6749986" lon="105.6668526"><ele>273.81</ele><time>2025-12-12T23:38:18.000Z</time></trkpt>
        <trkpt lat="28.6749568" lon="105.6669658"><ele>273.33</ele><time>2025-12-12T23:38:30.000Z</time></trkpt>
        <trkpt lat="28.6749198" lon="105.6670682"><ele>272.59</ele><time>2025-12-12T23:38:40.000Z</time></trkpt>
        <trkpt lat="28.674899" lon="105.6671814"><ele>272.72</ele><time>2025-12-12T23:38:56.000Z</time></trkpt>
        <trkpt lat="28.6748817" lon="105.6672991"><ele>273.01</ele><time>2025-12-12T23:39:08.000Z</time></trkpt>
        <trkpt lat="28.6748591" lon="105.6674044"><ele>272.41</ele><time>2025-12-12T23:39:18.000Z</time></trkpt>
        <trkpt lat="28.6748357" lon="105.6675148"><ele>272.53</ele><time>2025-12-12T23:39:28.000Z</time></trkpt>
        <trkpt lat="28.6748059" lon="105.6676212"><ele>273.03</ele><time>2025-12-12T23:39:38.000Z</time></trkpt>
        <trkpt lat="28.6747938" lon="105.6677286"><ele>272.85</ele><time>2025-12-12T23:39:48.000Z</time></trkpt>
        <trkpt lat="28.6748425" lon="105.6678141"><ele>272.57</ele><time>2025-12-12T23:40:00.000Z</time></trkpt>
        <trkpt lat="28.6748976" lon="105.6679029"><ele>272.32</ele><time>2025-12-12T23:40:10.000Z</time></trkpt>
        <trkpt lat="28.6749526" lon="105.6679915"><ele>271.45</ele><time>2025-12-12T23:40:20.000Z</time></trkpt>
        <trkpt lat="28.6750014" lon="105.6680857"><ele>270.44</ele><time>2025-12-12T23:40:34.000Z</time></trkpt>
        <trkpt lat="28.6750556" lon="105.6681808"><ele>270.38</ele><time>2025-12-12T23:40:46.000Z</time></trkpt>
        <trkpt lat="28.6751076" lon="105.6682799"><ele>270.69</ele><time>2025-12-12T23:41:10.000Z</time></trkpt>
        <trkpt lat="28.6751508" lon="105.6683753"><ele>271.21</ele><time>2025-12-12T23:41:30.000Z</time></trkpt>
        <trkpt lat="28.6751933" lon="105.6684803"><ele>272.54</ele><time>2025-12-12T23:41:42.000Z</time></trkpt>
        <trkpt lat="28.6751882" lon="105.6685864"><ele>273.9</ele><time>2025-12-12T23:41:54.000Z</time></trkpt>
        <trkpt lat="28.6751937" lon="105.6686973"><ele>272.95</ele><time>2025-12-12T23:42:08.000Z</time></trkpt>
        <trkpt lat="28.6751919" lon="105.6688085"><ele>273.23</ele><time>2025-12-12T23:42:18.000Z</time></trkpt>
        <trkpt lat="28.6751984" lon="105.6689181"><ele>273.43</ele><time>2025-12-12T23:42:28.000Z</time></trkpt>
        <trkpt lat="28.6752175" lon="105.6690393"><ele>272.69</ele><time>2025-12-12T23:42:40.000Z</time></trkpt>
        <trkpt lat="28.6752388" lon="105.6691535"><ele>271.75</ele><time>2025-12-12T23:42:50.000Z</time></trkpt>
        <trkpt lat="28.6752576" lon="105.669262"><ele>271.12</ele><time>2025-12-12T23:43:00.000Z</time></trkpt>
        <trkpt lat="28.6752538" lon="105.6693596"><ele>271.41</ele><time>2025-12-12T23:43:18.000Z</time></trkpt>
        <trkpt lat="28.6753242" lon="105.6693572"><ele>272.23</ele><time>2025-12-12T23:44:06.000Z</time></trkpt>
        <trkpt lat="28.6752483" lon="105.6693767"><ele>269.68</ele><time>2025-12-12T23:45:20.000Z</time></trkpt>
        <trkpt lat="28.6751517" lon="105.6694217"><ele>272.14</ele><time>2025-12-12T23:45:32.000Z</time></trkpt>
        <trkpt lat="28.6750522" lon="105.6694638"><ele>272.04</ele><time>2025-12-12T23:45:46.000Z</time></trkpt>
        <trkpt lat="28.6749573" lon="105.6695068"><ele>270.77</ele><time>2025-12-12T23:45:56.000Z</time></trkpt>
        <trkpt lat="28.6748652" lon="105.6695613"><ele>269.45</ele><time>2025-12-12T23:46:06.000Z</time></trkpt>
        <trkpt lat="28.6747814" lon="105.6696099"><ele>269.13</ele><time>2025-12-12T23:46:16.000Z</time></trkpt>
        <trkpt lat="28.674703" lon="105.6696634"><ele>269.63</ele><time>2025-12-12T23:46:26.000Z</time></trkpt>
        <trkpt lat="28.6746209" lon="105.6697298"><ele>269.49</ele><time>2025-12-12T23:46:36.000Z</time></trkpt>
        <trkpt lat="28.6745444" lon="105.669812"><ele>268.93</ele><time>2025-12-12T23:46:46.000Z</time></trkpt>
        <trkpt lat="28.6744698" lon="105.6698979"><ele>268.49</ele><time>2025-12-12T23:46:56.000Z</time></trkpt>
        <trkpt lat="28.6744019" lon="105.6699875"><ele>268.02</ele><time>2025-12-12T23:47:06.000Z</time></trkpt>
        <trkpt lat="28.6744019" lon="105.6699875"><ele>268.02</ele><time>2025-12-12T23:47:14.000Z</time></trkpt>
      </trkseg>
  </trk>
</gpx>